M I D A S
Marine Information and Data Acquisition System
Tripno 1204 of the Zeeleeuw from 2007-01-23 05:40:40 to 2007-01-23 19:03:12
Back to CruiseResearch ActivitiesStationsMapUnderway DataData graphs

EquipmentUnitsComment
TimeDGPSUTC
LatitudeDGPSDM.mWGS84
LongitudeDGPSDM.mWGS84
TemperatureSBE03/SBE38deg celciusITS90
ConductivitySBE21S/mITS90
SalinitySBE21 Practical Salinity Units
ChlorophylAChelsea fluorimeterg/lCalibrated in Aceton
Missing or incorrect values are displayed as -999
Sea surface data collected by the RV Zeeleeuw from 2007-01-23 05:41:37 to 2007-01-23 19:14:58
                                                                                    Next 1000 lines
Time Latitude Longitude Temperature Conductivity Salinity ChlorophylA
2007-01-23 05:41:47 51°13.599 2°56.092 15.809 0.06581 0.366411 -2.871232
2007-01-23 05:41:52 51°13.599 2°56.091 15.8134 0.06581 0.366418 -2.871232
2007-01-23 05:41:57 51°13.599 2°56.09 15.8577 0.06581 0.366418 -2.871232
2007-01-23 05:42:02 51°13.6 2°56.088 15.7929 0.06581 0.366426 -2.871232
2007-01-23 05:42:07 51°13.6 2°56.086 15.8304 0.06581 0.366426 -2.871232
2007-01-23 05:42:12 51°13.601 2°56.084 15.8257 0.06581 0.366426 -2.871232
2007-01-23 05:42:16 51°13.602 2°56.083 15.8361 0.06581 0.366433 -2.871232
2007-01-23 05:42:21 51°13.602 2°56.08 15.8268 0.06581 0.366433 -2.871232
2007-01-23 05:42:27 51°13.603 2°56.077 15.8511 0.06581 0.36644 -2.871232
2007-01-23 05:42:32 51°13.604 2°56.075 15.8861 0.06581 0.36644 -2.871232
2007-01-23 05:42:37 51°13.605 2°56.072 15.8598 0.06581 0.366448 -2.871232
2007-01-23 05:42:42 51°13.605 2°56.069 15.8241 0.06581 0.366448 -2.871232
2007-01-23 05:42:47 51°13.606 2°56.065 15.831 0.06581 0.366455 -2.871232
2007-01-23 05:42:52 51°13.608 2°56.061 15.8536 0.06581 0.366455 -2.871232
2007-01-23 05:42:57 51°13.609 2°56.057 15.8893 0.06581 0.366455 -2.871232
2007-01-23 05:43:02 51°13.61 2°56.052 15.8864 0.06581 0.366455 -2.871232
2007-01-23 05:43:07 51°13.612 2°56.047 15.9433 0.06581 0.366455 -2.871232
2007-01-23 05:43:12 51°13.613 2°56.042 15.9382 0.06581 0.366462 -2.871232
2007-01-23 05:43:17 51°13.615 2°56.036 15.9245 0.06581 0.366462 -2.871232
2007-01-23 05:43:22 51°13.617 2°56.029 15.922 0.06581 0.36647 -2.871232
2007-01-23 05:43:27 51°13.619 2°56.023 15.9362 0.06581 0.36647 -2.871232
2007-01-23 05:43:32 51°13.62 2°56.016 15.9235 0.06581 0.366477 -2.871232
2007-01-23 05:43:37 51°13.623 2°56.008 15.9558 0.06581 0.366485 -2.871232
2007-01-23 05:43:42 51°13.625 2°56.001 15.9376 0.06581 0.366485 -2.871232
2007-01-23 05:43:47 51°13.627 2°55.993 15.9254 0.06581 0.366485 -2.871232
2007-01-23 05:43:52 51°13.629 2°55.986 15.9194 0.06581 0.366492 -2.871232
2007-01-23 05:43:57 51°13.632 2°55.978 15.9374 0.06581 0.366499 -2.871232
2007-01-23 05:44:02 51°13.635 2°55.97 15.9481 0.065913 0.367091 -2.871232
2007-01-23 05:44:07 51°13.638 2°55.962 15.9509 0.06581 0.366507 -2.871232
2007-01-23 05:44:12 51°13.641 2°55.953 15.9773 0.06581 0.366507 -2.871232
2007-01-23 05:44:17 51°13.644 2°55.945 15.9938 0.06581 0.366507 -2.871232
2007-01-23 05:44:22 51°13.648 2°55.937 15.9613 0.06581 0.366514 -2.871232
2007-01-23 05:44:27 51°13.651 2°55.929 15.9514 0.06581 0.366514 -2.871232
2007-01-23 05:44:32 51°13.654 2°55.921 15.9776 0.06581 0.366522 -2.871232
2007-01-23 05:44:37 51°13.658 2°55.913 15.9417 0.06581 0.366522 -2.871232
2007-01-23 05:44:42 51°13.661 2°55.906 15.9564 0.06581 0.366522 -2.871232
2007-01-23 05:44:47 51°13.664 2°55.898 15.9481 0.06581 0.366522 -2.871232
2007-01-23 05:44:52 51°13.667 2°55.891 13.8899 0.065913 0.367121 -2.871232
2007-01-23 05:44:57 51°13.671 2°55.883 12.2462 0.086805 0.490352 -2.871232
2007-01-23 05:45:02 51°13.674 2°55.876 10.9433 0.110784 0.630051 -2.871232
2007-01-23 05:45:07 51°13.677 2°55.868 10.0813 0.80057 5.038699 -2.871232
2007-01-23 05:45:12 51°13.68 2°55.86 9.7557 0.80057 5.038699 -2.871232
2007-01-23 05:45:17 51°13.684 2°55.853 9.5913 2.156749 14.743711 -2.871232
2007-01-23 05:45:22 51°13.687 2°55.846 9.4495 2.579585 18.549946 -2.871232
2007-01-23 05:45:27 51°13.69 2°55.839 9.4053 3.11858 23.813007 -2.871232
2007-01-23 05:45:32 51°13.693 2°55.832 9.3293 3.252615 26.004136 -2.871232
2007-01-23 05:45:37 51°13.696 2°55.825 9.2393 3.275917 27.068328 -2.871232
2007-01-23 05:45:42 51°13.699 2°55.818 9.2024 3.275917 27.068328 -2.871232
2007-01-23 05:45:47 51°13.702 2°55.811 9.1842 3.265057 27.555094 -2.871232
2007-01-23 05:45:52 51°13.704 2°55.804 9.1598 3.226767 27.599058 -2.871232
2007-01-23 05:45:57 51°13.707 2°55.798 9.0352 3.253888 28.096779 -2.871232
2007-01-23 05:46:02 51°13.709 2°55.791 9.0483 3.233086 28.074789 -2.871232
2007-01-23 05:46:07 51°13.711 2°55.785 9.0161 3.232363 28.182239 -2.871232
2007-01-23 05:46:12 51°13.713 2°55.778 8.9871 3.232363 28.182239 -2.871232
2007-01-23 05:46:16 51°13.715 2°55.773 8.9656 3.226672 28.224085 -2.871232
2007-01-23 05:46:22 51°13.717 2°55.766 8.9229 3.220566 28.230484 -2.871232
2007-01-23 05:46:27 51°13.719 2°55.76 8.8943 3.219222 28.29135 -2.871232
2007-01-23 05:46:32 51°13.721 2°55.754 8.8868 3.213841 28.301314 -2.871232
2007-01-23 05:46:36 51°13.722 2°55.749 8.8422 3.213841 28.301314 -2.871232
2007-01-23 05:46:42 51°13.724 2°55.742 8.8393 3.203181 28.239764 -2.871232
2007-01-23 05:46:47 51°13.725 2°55.737 8.7786 3.188589 28.13303 -2.871232
2007-01-23 05:46:52 51°13.726 2°55.731 8.7833 3.194592 28.22505 -2.871232
2007-01-23 05:46:57 51°13.727 2°55.726 8.7328 3.188073 28.196289 -2.871232
2007-01-23 05:47:01 51°13.728 2°55.722 8.7699 3.180105 28.145111 -2.871232
2007-01-23 05:47:07 51°13.729 2°55.717 8.707 3.17907 28.161773 -2.871232
2007-01-23 05:47:12 51°13.73 2°55.713 8.6888 3.17907 28.161773 -2.871232
2007-01-23 05:47:17 51°13.731 2°55.71 8.6833 3.172965 28.133225 -2.871232
2007-01-23 05:47:22 51°13.731 2°55.707 8.6481 3.163341 28.07681 -2.871232
2007-01-23 05:47:26 51°13.731 2°55.705 8.6491 3.170792 28.181327 -2.871232
2007-01-23 05:47:32 51°13.732 2°55.704 8.6667 3.164376 28.132474 -2.871232
2007-01-23 05:47:37 51°13.733 2°55.703 8.6568 3.153407 28.04852 -2.871232
2007-01-23 05:47:42 51°13.733 2°55.703 8.62 3.153407 28.04852 -2.871232
2007-01-23 05:47:46 51°13.734 2°55.704 8.6186 3.156823 28.10377 -2.871232
2007-01-23 05:47:52 51°13.735 2°55.705 8.5838 3.149062 28.052028 -2.871232
2007-01-23 05:47:57 51°13.736 2°55.707 8.5662 3.133747 27.919855 -2.871232
2007-01-23 05:48:02 51°13.737 2°55.709 8.5532 3.129918 27.887359 -2.871232
2007-01-23 05:48:06 51°13.737 2°55.711 8.541 3.128263 27.880717 -2.871232
2007-01-23 05:48:12 51°13.739 2°55.713 8.5599 3.128263 27.880717 -2.871232
2007-01-23 05:48:17 51°13.74 2°55.714 8.5506 3.12102 27.827931 -2.871232
2007-01-23 05:48:22 51°13.741 2°55.716 8.5394 3.105189 27.691943 -2.871232
2007-01-23 05:48:27 51°13.742 2°55.716 8.5156 3.099912 27.660632 -2.871232
2007-01-23 05:48:32 51°13.743 2°55.717 8.5155 3.08584 27.537403 -2.871232
2007-01-23 05:48:36 51°13.743 2°55.717 8.5093 3.08584 27.537403 -2.871232
2007-01-23 05:48:42 51°13.744 2°55.717 8.5121 3.089876 27.593416 -2.871232
2007-01-23 05:48:47 51°13.744 2°55.717 8.493 3.062354 27.327193 -2.871232
2007-01-23 05:48:52 51°13.744 2°55.716 8.5041 3.073114 27.4406 -2.871232
2007-01-23 05:48:57 51°13.744 2°55.715 8.4707 3.060802 27.328718 -2.871232
2007-01-23 05:49:02 51°13.743 2°55.713 8.4862 3.037628 27.10759 -2.871232
2007-01-23 05:49:07 51°13.743 2°55.712 8.4626 3.032869 27.069407 -2.871232
2007-01-23 05:49:12 51°13.742 2°55.71 8.46 3.032869 27.069407 -2.871232
2007-01-23 05:49:17 51°13.741 2°55.708 8.4642 3.043939 27.187977 -2.871232
2007-01-23 05:49:22 51°13.74 2°55.707 8.4656 3.062458 27.378026 -2.871232
2007-01-23 05:49:27 51°13.74 2°55.705 8.4748 3.061113 27.371351 -2.871232
2007-01-23 05:49:32 51°13.739 2°55.703 8.463 3.062355 27.39316 -2.871232
2007-01-23 05:49:37 51°13.738 2°55.701 8.4419 3.069598 27.47135 -2.871232
2007-01-23 05:49:42 51°13.737 2°55.7 8.4526 3.069598 27.47135 -2.871232
2007-01-23 05:49:47 51°13.737 2°55.698 8.4492 3.065149 27.433268 -2.871232
2007-01-23 05:49:52 51°13.736 2°55.698 8.4279 3.066597 27.451269 -2.871232
2007-01-23 05:49:57 51°13.736 2°55.697 8.4415 3.069184 27.476105 -2.871232
2007-01-23 05:50:02 51°13.736 2°55.696 8.4443 3.083048 27.618421 -2.871232
2007-01-23 05:50:06 51°13.737 2°55.696 8.4458 3.095982 27.753896 -2.871232
2007-01-23 05:50:12 51°13.738 2°55.695 8.4352 3.095982 27.753896 -2.871232
2007-01-23 05:50:17 51°13.739 2°55.695 8.4361 3.106019 27.858561 -2.871232
2007-01-23 05:50:22 51°13.74 2°55.695 8.4393 3.115228 27.957358 -2.871232
2007-01-23 05:50:27 51°13.742 2°55.695 8.428 3.123402 28.042212 -2.871232
2007-01-23 05:50:32 51°13.744 2°55.695 8.4342 3.110675 27.915961 -2.871232
2007-01-23 05:50:37 51°13.746 2°55.695 8.433 3.120505 28.012712 -2.871232
2007-01-23 05:50:42 51°13.748 2°55.694 8.4351 3.120505 28.012712 -2.871232
2007-01-23 05:50:47 51°13.75 2°55.694 8.4435 3.137268 28.184387 -2.871232
2007-01-23 05:50:52 51°13.753 2°55.692 8.4385 3.135406 28.169677 -2.871232
2007-01-23 05:50:56 51°13.755 2°55.692 8.4216 3.141615 28.231345 -2.871232
2007-01-23 05:51:02 51°13.757 2°55.69 8.4249 3.129094 28.107 -2.871232
2007-01-23 05:51:07 51°13.76 2°55.689 8.4269 3.138821 28.204351 -2.871232
2007-01-23 05:51:12 51°13.762 2°55.688 8.4369 3.138821 28.204351 -2.871232
2007-01-23 05:51:17 51°13.764 2°55.686 8.4303 3.137889 28.1951 -2.871232
2007-01-23 05:51:21 51°13.767 2°55.684 8.4229 3.14089 28.224908 -2.871232
2007-01-23 05:51:27 51°13.77 2°55.682 8.4207 3.132301 28.144903 -2.871232
2007-01-23 05:51:32 51°13.773 2°55.679 8.416 3.138717 28.212425 -2.871232
2007-01-23 05:51:37 51°13.777 2°55.676 8.4195 3.136234 28.190024 -2.871232
2007-01-23 05:51:42 51°13.781 2°55.673 8.4017 3.136234 28.190024 -2.871232
2007-01-23 05:51:47 51°13.786 2°55.67 8.3955 3.134371 28.170761 -2.871232
2007-01-23 05:51:52 51°13.791 2°55.666 8.3943 3.120298 28.03326 -2.871232
2007-01-23 05:51:57 51°13.796 2°55.662 8.3892 3.134164 28.174767 -2.871232
2007-01-23 05:52:02 51°13.802 2°55.658 8.3848 3.134475 28.180884 -2.871232
2007-01-23 05:52:06 51°13.807 2°55.655 8.3893 3.134475 28.180884 -2.871232
2007-01-23 05:52:12 51°13.815 2°55.649 8.4001 3.136855 28.206814 -2.871232
2007-01-23 05:52:17 51°13.821 2°55.644 8.4001 3.134061 28.184353 -2.871232
2007-01-23 05:52:22 51°13.828 2°55.639 8.411 3.131888 28.170335 -2.871232
2007-01-23 05:52:26 51°13.834 2°55.635 8.3879 3.127645 28.134975 -2.871232
2007-01-23 05:52:32 51°13.843 2°55.629 8.3892 3.119988 28.061878 -2.871232
2007-01-23 05:52:37 51°13.851 2°55.623 8.3914 3.119988 28.062634 -2.871232
2007-01-23 05:52:42 51°13.858 2°55.617 8.3965 3.119988 28.062634 -2.871232
2007-01-23 05:52:46 51°13.865 2°55.613 8.3961 3.109124 27.953155 -2.871232
2007-01-23 05:52:52 51°13.875 2°55.606 8.4093 3.100639 27.867376 -2.871232
2007-01-23 05:52:56 51°13.881 2°55.601 8.4033 3.10933 27.954458 -2.871232
2007-01-23 05:53:02 51°13.891 2°55.594 8.4185 3.097742 27.843855 -2.871232
2007-01-23 05:53:07 51°13.9 2°55.588 8.428 3.087084 27.738042 -2.871232
2007-01-23 05:53:12 51°13.908 2°55.582 8.441 3.087084 27.738042 -2.871232
2007-01-23 05:53:16 51°13.915 2°55.577 8.4495 3.078497 27.652815 -2.871232
2007-01-23 05:53:22 51°13.926 2°55.57 8.4406 3.066805 27.533874 -2.871232
2007-01-23 05:53:27 51°13.934 2°55.563 8.4355 3.062149 27.483273 -2.871232
2007-01-23 05:53:32 51°13.943 2°55.558 8.438 3.055942 27.415847 -2.871232
2007-01-23 05:53:37 51°13.952 2°55.551 8.4375 3.044768 27.298565 -2.871232
2007-01-23 05:53:41 51°13.959 2°55.546 8.4359 3.044768 27.298565 -2.871232
2007-01-23 05:53:47 51°13.969 2°55.539 8.4241 3.052631 27.368319 -2.871232
2007-01-23 05:53:52 51°13.978 2°55.532 8.425 3.045802 27.297057 -2.871232
2007-01-23 05:53:57 51°13.987 2°55.526 8.4293 3.051182 27.351038 -2.871232
2007-01-23 05:54:02 51°13.996 2°55.519 8.411 3.067115 27.508809 -2.871232
2007-01-23 05:54:07 51°14.005 2°55.513 8.4157 3.069909 27.535742 -2.871232
2007-01-23 05:54:12 51°14.014 2°55.506 8.4125 3.069909 27.535742 -2.871232
2007-01-23 05:54:17 51°14.023 2°55.5 8.4199 3.083256 27.672475 -2.871232
2007-01-23 05:54:21 51°14.03 2°55.494 8.43 3.099604 27.836865 -2.871232
2007-01-23 05:54:26 51°14.039 2°55.488 8.4254 3.107882 27.920521 -2.871232
2007-01-23 05:54:32 51°14.05 2°55.48 8.4241 3.115746 28.003876 -2.871232
2007-01-23 05:54:37 51°14.059 2°55.473 8.4175 3.107778 27.92776 -2.871232
2007-01-23 05:54:42 51°14.068 2°55.467 8.4178 3.107778 27.92776 -2.871232
2007-01-23 05:54:46 51°14.075 2°55.461 8.4123 3.102294 27.87406 -2.871232
2007-01-23 05:54:52 51°14.085 2°55.453 8.4113 3.120195 28.049584 -2.871232
2007-01-23 05:54:57 51°14.094 2°55.446 8.4052 3.11916 28.037795 -2.871232
2007-01-23 05:55:02 51°14.103 2°55.439 8.4077 3.127024 28.116689 -2.871232
2007-01-23 05:55:07 51°14.112 2°55.432 8.3972 3.125162 28.100449 -2.871232
2007-01-23 05:55:12 51°14.121 2°55.424 8.4015 3.125162 28.100449 -2.871232
2007-01-23 05:55:17 51°14.13 2°55.416 8.4186 3.131888 28.169576 -2.871232
2007-01-23 05:55:22 51°14.139 2°55.408 8.4009 3.14772 28.330849 -2.871232
2007-01-23 05:55:27 51°14.147 2°55.4 8.4124 3.155689 28.41321 -2.871232
2007-01-23 05:55:32 51°14.155 2°55.391 8.4166 3.158793 28.446416 -2.871232
2007-01-23 05:55:37 51°14.164 2°55.382 8.4135 3.158793 28.446416 -2.871232
2007-01-23 05:55:42 51°14.172 2°55.373 8.402 3.161691 28.47757 -2.871232
2007-01-23 05:55:47 51°14.181 2°55.364 8.4201 3.140684 28.269215 -2.871232
2007-01-23 05:55:52 51°14.189 2°55.354 8.4086 3.158897 28.448212 -2.871232
2007-01-23 05:55:57 51°14.197 2°55.345 8.4028 3.16314 28.491233 -2.871232
2007-01-23 05:56:01 51°14.204 2°55.337 8.403 3.168935 28.547422 -2.871232
2007-01-23 05:56:07 51°14.213 2°55.325 8.4182 3.153929 28.398756 -2.871232
2007-01-23 05:56:12 51°14.221 2°55.314 8.4082 3.153929 28.398756 -2.871232
2007-01-23 05:56:17 51°14.229 2°55.303 8.4086 3.172764 28.587879 -2.871232
2007-01-23 05:56:21 51°14.235 2°55.294 8.4084 3.174523 28.60541 -2.871232
2007-01-23 05:56:27 51°14.244 2°55.281 8.3983 3.164381 28.506672 -2.871232
2007-01-23 05:56:32 51°14.251 2°55.269 8.3943 3.154861 28.413385 -2.871232
2007-01-23 05:56:37 51°14.258 2°55.258 8.3859 3.153723 28.40052 -2.871232
2007-01-23 05:56:42 51°14.265 2°55.246 8.3818 3.153723 28.40052 -2.871232
2007-01-23 05:56:46 51°14.271 2°55.236 8.3839 3.146582 28.330202 -2.871232
2007-01-23 05:56:52 51°14.279 2°55.221 8.3723 3.131888 28.183232 -2.871232
2007-01-23 05:56:57 51°14.286 2°55.208 8.3716 3.117505 28.04248 -2.871232
2007-01-23 05:57:02 51°14.293 2°55.194 8.3719 3.108813 27.961364 -2.871232
2007-01-23 05:57:07 51°14.301 2°55.18 8.3685 3.110883 27.986456 -2.871232
2007-01-23 05:57:12 51°14.308 2°55.166 8.372 3.110883 27.986456 -2.871232
2007-01-23 05:57:17 51°14.316 2°55.151 8.3695 3.098673 27.868863 -2.871232
2007-01-23 05:57:22 51°14.325 2°55.136 8.3574 3.100846 27.894215 -2.871232
2007-01-23 05:57:26 51°14.331 2°55.124 8.3608 3.094948 27.840103 -2.871232
2007-01-23 05:57:32 51°14.342 2°55.105 8.3532 3.106434 27.956539 -2.871232
2007-01-23 05:57:37 51°14.35 2°55.09 8.3683 3.105089 27.946176 -2.871232
2007-01-23 05:57:42 51°14.359 2°55.074 8.3604 3.105089 27.946176 -2.871232
2007-01-23 05:57:47 51°14.369 2°55.059 8.3548 3.104364 27.93822 -2.871232
2007-01-23 05:57:52 51°14.378 2°55.042 8.3786 3.075393 27.654039 -2.871232
2007-01-23 05:57:56 51°14.385 2°55.029 8.3644 3.112953 28.030443 -2.871232
2007-01-23 05:58:02 51°14.397 2°55.01 8.3726 3.137683 28.280486 -2.871232
2007-01-23 05:58:07 51°14.406 2°54.993 8.3725 3.152378 28.426941 -2.871232
2007-01-23 05:58:12 51°14.416 2°54.977 8.3799 3.152378 28.426941 -2.871232
2007-01-23 05:58:17 51°14.427 2°54.962 8.36 3.164899 28.552588 -2.871232
2007-01-23 05:58:22 51°14.438 2°54.948 8.3625 3.179284 28.695364 -2.871232
2007-01-23 05:58:27 51°14.45 2°54.935 8.3614 3.186321 28.764072 -2.871232
2007-01-23 05:58:32 51°14.462 2°54.923 8.3684 3.228754 29.187389 -2.871232
2007-01-23 05:58:37 51°14.474 2°54.912 8.3691 3.240968 29.306441 -2.871232
2007-01-23 05:58:42 51°14.486 2°54.9 8.3472 3.240968 29.306441 -2.871232
2007-01-23 05:58:47 51°14.499 2°54.89 8.3485 3.256907 29.466032 -2.871232
2007-01-23 05:58:52 51°14.511 2°54.879 8.3491 3.261979 29.517632 -2.871232
2007-01-23 05:58:57 51°14.524 2°54.87 8.3368 3.275953 29.65847 -2.871232
2007-01-23 05:59:02 51°14.537 2°54.86 8.3425 3.300279 29.902467 -2.871232
2007-01-23 05:59:07 51°14.55 2°54.851 8.3773 3.311045 30.012158 -2.871232
2007-01-23 05:59:12 51°14.563 2°54.843 8.366 3.311045 30.012158 -2.871232
2007-01-23 05:59:17 51°14.576 2°54.835 8.3723 3.329989 30.208989 -2.871232
2007-01-23 05:59:22 51°14.59 2°54.827 8.3838 3.340859 30.319101 -2.871232
2007-01-23 05:59:26 51°14.601 2°54.821 8.3939 3.354421 30.457185 -2.871232
2007-01-23 05:59:32 51°14.617 2°54.813 8.4039 3.369226 30.61119 -2.871232
2007-01-23 05:59:37 51°14.631 2°54.805 8.4047 3.383307 30.748907 -2.871232
2007-01-23 05:59:42 51°14.644 2°54.799 8.419 3.383307 30.748907 -2.871232
2007-01-23 05:59:47 51°14.658 2°54.792 8.4135 3.39159 30.826565 -2.871232
2007-01-23 05:59:52 51°14.672 2°54.785 8.41 3.401219 30.91696 -2.871232
2007-01-23 05:59:57 51°14.686 2°54.778 8.4106 3.406914 30.964348 -2.871232
2007-01-23 06:00:02 51°14.701 2°54.771 8.4144 3.41354 31.023623 -2.871232
2007-01-23 06:00:07 51°14.716 2°54.764 8.4117 3.41499 31.03154 -2.871232
2007-01-23 06:00:12 51°14.732 2°54.758 8.4053 3.41499 31.03154 -2.871232
2007-01-23 06:00:17 51°14.747 2°54.752 8.4074 3.415197 31.026932 -2.871232
2007-01-23 06:00:22 51°14.763 2°54.747 8.4085 3.414886 31.022965 -2.871232
2007-01-23 06:00:27 51°14.779 2°54.74 8.4117 3.413644 31.009608 -2.871232
2007-01-23 06:00:32 51°14.795 2°54.735 8.4314 3.402358 30.893419 -2.871232
2007-01-23 06:00:37 51°14.811 2°54.73 8.4529 3.408259 30.952025 -2.871232
2007-01-23 06:00:42 51°14.826 2°54.724 8.4644 3.408259 30.952025 -2.871232
2007-01-23 06:00:47 51°14.842 2°54.717 8.4744 3.402254 30.893209 -2.871232
2007-01-23 06:00:52 51°14.858 2°54.71 8.4828 3.406189 30.933669 -2.871232
2007-01-23 06:00:57 51°14.874 2°54.702 8.4933 3.408259 30.953694 -2.871232
2007-01-23 06:01:02 51°14.889 2°54.694 8.4946 3.405257 30.915114 -2.871232
2007-01-23 06:01:07 51°14.905 2°54.686 8.5103 3.431764 31.167891 -2.871232
2007-01-23 06:01:12 51°14.921 2°54.679 8.5117 3.431764 31.167891 -2.871232
2007-01-23 06:01:17 51°14.937 2°54.672 8.5144 3.449056 31.328696 -2.871232
2007-01-23 06:01:22 51°14.954 2°54.665 8.5141 3.468835 31.517109 -2.871232
2007-01-23 06:01:26 51°14.966 2°54.66 8.5219 3.480951 31.62826 -2.871232
2007-01-23 06:01:32 51°14.986 2°54.653 8.5311 3.4882 31.692861 -2.871232
2007-01-23 06:01:37 51°15.002 2°54.646 8.5367 3.492757 31.728584 -2.871232
2007-01-23 06:01:42 51°15.019 2°54.64 8.5372 3.492757 31.728584 -2.871232
2007-01-23 06:01:46 51°15.032 2°54.635 8.542 3.503216 31.827255 -2.871232
2007-01-23 06:01:52 51°15.051 2°54.628 8.5461 3.510155 31.892979 -2.871232
2007-01-23 06:01:57 51°15.067 2°54.621 8.5591 3.512537 31.911007 -2.871232
2007-01-23 06:02:02 51°15.083 2°54.614 8.5641 3.517508 31.955154 -2.871232
2007-01-23 06:02:07 51°15.099 2°54.607 8.5623 3.518855 31.961864 -2.871232
2007-01-23 06:02:12 51°15.114 2°54.599 8.5663 3.518855 31.961864 -2.871232
2007-01-23 06:02:17 51°15.131 2°54.592 8.5696 3.522894 31.999174 -2.871232
2007-01-23 06:02:22 51°15.147 2°54.585 8.5598 3.529418 32.059841 -2.871232
2007-01-23 06:02:27 51°15.163 2°54.578 8.5699 3.531283 32.071757 -2.871232
2007-01-23 06:02:32 51°15.179 2°54.572 8.5665 3.529625 32.048151 -2.871232
2007-01-23 06:02:37 51°15.195 2°54.566 8.5757 3.532525 32.072232 -2.871232
2007-01-23 06:02:42 51°15.212 2°54.561 8.5756 3.532525 32.072232 -2.871232
2007-01-23 06:02:47 51°15.228 2°54.556 8.5815 3.535011 32.093855 -2.871232
2007-01-23 06:02:52 51°15.245 2°54.552 8.576 3.5376 32.119108 -2.871232
2007-01-23 06:02:57 51°15.261 2°54.547 8.5793 3.533768 32.078737 -2.871232
2007-01-23 06:03:02 51°15.278 2°54.541 8.5724 3.541225 32.151357 -2.871232
2007-01-23 06:03:07 51°15.294 2°54.535 8.5735 3.532732 32.063127 -2.871232
2007-01-23 06:03:12 51°15.311 2°54.528 8.5788 3.532732 32.063127 -2.871232
2007-01-23 06:03:17 51°15.326 2°54.519 8.575 3.532525 32.058457 -2.871232
2007-01-23 06:03:22 51°15.342 2°54.51 8.582 3.538636 32.118342 -2.871232
2007-01-23 06:03:26 51°15.355 2°54.502 8.585 3.545679 32.190232 -2.871232
2007-01-23 06:03:32 51°15.373 2°54.49 8.5911 3.548786 32.22071 -2.871232
2007-01-23 06:03:37 51°15.389 2°54.48 8.5864 3.547543 32.209902 -2.871232
2007-01-23 06:03:42 51°15.405 2°54.472 8.5956 3.547543 32.209902 -2.871232
2007-01-23 06:03:46 51°15.417 2°54.465 8.5957 3.547647 32.212677 -2.871232
2007-01-23 06:03:52 51°15.436 2°54.455 8.5933 3.550754 32.24316 -2.871232
2007-01-23 06:03:57 51°15.451 2°54.447 8.5885 3.535943 32.091192 -2.871232
2007-01-23 06:04:02 51°15.467 2°54.438 8.5829 3.551375 32.24337 -2.871232
2007-01-23 06:04:07 51°15.483 2°54.429 8.5802 3.55034 32.228597 -2.871232
2007-01-23 06:04:12 51°15.499 2°54.422 8.5731 3.55034 32.228597 -2.871232
2007-01-23 06:04:17 51°15.515 2°54.415 8.5794 3.55034 32.227732 -2.871232
2007-01-23 06:04:22 51°15.531 2°54.408 8.5848 3.554172 32.263788 -2.871232
2007-01-23 06:04:27 51°15.547 2°54.402 8.5718 3.555415 32.276325 -2.871232
2007-01-23 06:04:32 51°15.563 2°54.396 8.5746 3.556243 32.287283 -2.871232
2007-01-23 06:04:37 51°15.58 2°54.39 8.5724 3.556036 32.289526 -2.871232
2007-01-23 06:04:42 51°15.596 2°54.385 8.5606 3.556036 32.289526 -2.871232
2007-01-23 06:04:47 51°15.612 2°54.379 8.5645 3.557797 32.311629 -2.871232
2007-01-23 06:04:52 51°15.628 2°54.374 8.5565 3.552825 32.25973 -2.871232
2007-01-23 06:04:57 51°15.644 2°54.369 8.56 3.554793 32.281318 -2.871232
2007-01-23 06:05:02 51°15.66 2°54.363 8.5522 3.554276 32.276959 -2.871232
2007-01-23 06:05:07 51°15.676 2°54.358 8.5349 3.55179 32.25361 -2.871232
2007-01-23 06:05:12 51°15.692 2°54.353 8.5388 3.55179 32.25361 -2.871232
2007-01-23 06:05:17 51°15.709 2°54.348 8.5493 3.552722 32.267347 -2.871232
2007-01-23 06:05:22 51°15.725 2°54.343 8.5368 3.550858 32.252864 -2.871232
2007-01-23 06:05:27 51°15.741 2°54.338 8.5367 3.554172 32.289784 -2.871232
2007-01-23 06:05:32 51°15.758 2°54.334 8.525 3.547854 32.229477 -2.871232
2007-01-23 06:05:37 51°15.774 2°54.33 8.5314 3.553551 32.294787 -2.871232
2007-01-23 06:05:41 51°15.788 2°54.328 8.5266 3.553551 32.294787 -2.871232
2007-01-23 06:05:47 51°15.808 2°54.325 8.5312 3.553758 32.301218 -2.871232
2007-01-23 06:05:52 51°15.825 2°54.322 8.53 3.550754 32.272619 -2.871232
2007-01-23 06:05:57 51°15.841 2°54.32 8.5256 3.552308 32.290913 -2.871232
2007-01-23 06:06:02 51°15.858 2°54.318 8.5339 3.55469 32.319318 -2.871232
2007-01-23 06:06:06 51°15.871 2°54.317 8.53 3.555312 32.329942 -2.871232
2007-01-23 06:06:12 51°15.892 2°54.315 8.5346 3.555312 32.329942 -2.871232
2007-01-23 06:06:17 51°15.909 2°54.314 8.5276 3.554587 32.323485 -2.871232
2007-01-23 06:06:22 51°15.926 2°54.314 8.5285 3.556658 32.345286 -2.871232
2007-01-23 06:06:27 51°15.943 2°54.314 8.5221 3.548165 32.260343 -2.871232
2007-01-23 06:06:32 51°15.959 2°54.314 8.5231 3.555726 32.335867 -2.871232
2007-01-23 06:06:37 51°15.976 2°54.315 8.528 3.55179 32.29523 -2.871232
2007-01-23 06:06:42 51°15.992 2°54.315 8.5248 3.55179 32.29523 -2.871232
2007-01-23 06:06:47 51°16.007 2°54.315 8.5178 3.55034 32.281448 -2.871232
2007-01-23 06:06:52 51°16.02 2°54.316 8.5245 3.556969 32.348427 -2.871232
2007-01-23 06:06:57 51°16.033 2°54.317 8.5137 3.556762 32.348073 -2.871232
2007-01-23 06:07:02 51°16.045 2°54.317 8.5141 3.558212 32.365338 -2.871232
2007-01-23 06:07:07 51°16.056 2°54.318 8.5043 3.559455 32.377901 -2.871232
2007-01-23 06:07:12 51°16.067 2°54.32 8.5036 3.559455 32.377901 -2.871232
2007-01-23 06:07:17 51°16.077 2°54.32 8.5026 3.560076 32.385054 -2.871232
2007-01-23 06:07:21 51°16.085 2°54.322 8.4998 3.560905 32.395172 -2.871232
2007-01-23 06:07:27 51°16.096 2°54.323 8.4934 3.550962 32.297278 -2.871232
2007-01-23 06:07:32 51°16.105 2°54.325 8.4957 3.561941 32.411745 -2.871232
2007-01-23 06:07:37 51°16.114 2°54.326 8.4948 3.55873 32.382763 -2.871232
2007-01-23 06:07:41 51°16.121 2°54.328 8.4968 3.55873 32.382763 -2.871232
2007-01-23 06:07:47 51°16.13 2°54.33 8.4956 3.557694 32.377516 -2.871232
2007-01-23 06:07:52 51°16.137 2°54.333 8.4921 3.561113 32.414701 -2.871232
2007-01-23 06:07:57 51°16.144 2°54.336 8.4984 3.564945 32.456089 -2.871232
2007-01-23 06:08:02 51°16.151 2°54.339 8.4959 3.563806 32.448054 -2.871232
2007-01-23 06:08:06 51°16.156 2°54.342 8.4926 3.567224 32.484391 -2.871232
2007-01-23 06:08:12 51°16.164 2°54.345 8.4864 3.567224 32.484391 -2.871232
2007-01-23 06:08:17 51°16.17 2°54.348 8.4876 3.536151 32.170141 -2.871232
2007-01-23 06:08:22 51°16.176 2°54.352 8.4951 3.564841 32.462903 -2.871232
2007-01-23 06:08:27 51°16.182 2°54.354 8.4914 3.559041 32.404211 -2.871232
2007-01-23 06:08:32 51°16.187 2°54.357 8.4955 3.560388 32.417834 -2.871232
2007-01-23 06:08:37 51°16.192 2°54.359 8.4996 3.570745 32.523536 -2.871232
2007-01-23 06:08:42 51°16.197 2°54.361 8.505 3.570745 32.523536 -2.871232
2007-01-23 06:08:47 51°16.203 2°54.363 8.5093 3.564427 32.461332 -2.871232
2007-01-23 06:08:52 51°16.208 2°54.363 8.5114 3.571263 32.531405 -2.871232
2007-01-23 06:08:57 51°16.212 2°54.363 8.5146 3.571471 32.533503 -2.871232
2007-01-23 06:09:02 51°16.217 2°54.363 8.5125 3.574371 32.561991 -2.871232
2007-01-23 06:09:07 51°16.221 2°54.363 8.5137 3.577582 32.590995 -2.871232
2007-01-23 06:09:12 51°16.225 2°54.362 8.5125 3.577582 32.590995 -2.871232
2007-01-23 06:09:17 51°16.229 2°54.361 8.5142 3.569917 32.509897 -2.871232
2007-01-23 06:09:22 51°16.233 2°54.359 8.5153 3.572403 32.531556 -2.871232
2007-01-23 06:09:27 51°16.237 2°54.358 8.5199 3.57696 32.575058 -2.871232
2007-01-23 06:09:32 51°16.24 2°54.355 8.5175 3.557487 32.376292 -2.871232
2007-01-23 06:09:37 51°16.244 2°54.354 8.5211 3.578825 32.590423 -2.871232
2007-01-23 06:09:41 51°16.247 2°54.351 8.5243 3.578825 32.590423 -2.871232
2007-01-23 06:09:47 51°16.25 2°54.349 8.5182 3.577271 32.57382 -2.871232
2007-01-23 06:09:52 51°16.253 2°54.346 8.5168 3.580689 32.607541 -2.871232
2007-01-23 06:09:57 51°16.256 2°54.342 8.5201 3.583486 32.635852 -2.871232
2007-01-23 06:10:01 51°16.259 2°54.34 8.518 3.579653 32.595303 -2.871232
2007-01-23 06:10:06 51°16.262 2°54.336 8.5139 3.578203 32.577996 -2.871232
2007-01-23 06:10:12 51°16.264 2°54.331 8.5146 3.578203 32.577996 -2.871232
2007-01-23 06:10:17 51°16.267 2°54.326 8.5127 3.581518 32.611542 -2.871232
2007-01-23 06:10:22 51°16.269 2°54.321 8.514 3.582036 32.617661 -2.871232
2007-01-23 06:10:26 51°16.271 2°54.317 8.5173 3.577374 32.571363 -2.871232
2007-01-23 06:10:32 51°16.273 2°54.311 8.5242 3.572403 32.521054 -2.871232
2007-01-23 06:10:37 51°16.274 2°54.306 8.5291 3.581518 32.615051 -2.871232
2007-01-23 06:10:42 51°16.275 2°54.3 8.5231 3.581518 32.615051 -2.871232
2007-01-23 06:10:47 51°16.276 2°54.295 8.5265 3.580896 32.609638 -2.871232
2007-01-23 06:10:52 51°16.277 2°54.29 8.5229 3.573646 32.537132 -2.871232
2007-01-23 06:10:57 51°16.277 2°54.286 8.5164 3.577892 32.579234 -2.871232
2007-01-23 06:11:02 51°16.278 2°54.282 8.52 3.58245 32.622733 -2.871232
2007-01-23 06:11:07 51°16.278 2°54.278 8.5231 3.579964 32.59494 -2.871232
2007-01-23 06:11:12 51°16.278 2°54.276 8.524 3.579964 32.59494 -2.871232
2007-01-23 06:11:17 51°16.279 2°54.274 8.5245 3.580171 32.597037 -2.871232
2007-01-23 06:11:22 51°16.279 2°54.272 8.5213 3.58131 32.609445 -2.871232
2007-01-23 06:11:27 51°16.279 2°54.27 8.519 3.577064 32.566466 -2.871232
2007-01-23 06:11:32 51°16.28 2°54.269 8.5177 3.580793 32.604203 -2.871232
2007-01-23 06:11:37 51°16.28 2°54.268 8.5162 3.579032 32.585506 -2.871232
2007-01-23 06:11:42 51°16.281 2°54.267 8.5167 3.579032 32.585506 -2.871232
2007-01-23 06:11:47 51°16.28 2°54.266 8.5157 3.585868 32.652943 -2.871232
2007-01-23 06:11:52 51°16.281 2°54.264 8.518 3.581932 32.612226 -2.871232
2007-01-23 06:11:57 51°16.281 2°54.263 8.5167 3.585765 32.653651 -2.871232
2007-01-23 06:12:02 51°16.281 2°54.263 8.5162 3.581725 32.613639 -2.871232
2007-01-23 06:12:07 51°16.282 2°54.261 8.5187 3.584832 32.646849 -2.871232
2007-01-23 06:12:12 51°16.281 2°54.261 8.5173 3.584832 32.646849 -2.871232
2007-01-23 06:12:17 51°16.283 2°54.261 8.5143 3.578203 32.580626 -2.871232
2007-01-23 06:12:22 51°16.282 2°54.261 8.5135 3.567741 32.474773 -2.871232
2007-01-23 06:12:27 51°16.283 2°54.261 8.5165 3.57955 32.594254 -2.871232
2007-01-23 06:12:32 51°16.283 2°54.262 8.5147 3.559973 32.397074 -2.871232
2007-01-23 06:12:37 51°16.284 2°54.262 8.5164 3.580378 32.602641 -2.871232
2007-01-23 06:12:42 51°16.284 2°54.263 8.5131 3.580378 32.602641 -2.871232
2007-01-23 06:12:47 51°16.285 2°54.264 8.519 3.568777 32.485251 -2.871232
2007-01-23 06:12:52 51°16.285 2°54.265 8.5252 3.581621 32.616977 -2.871232
2007-01-23 06:12:57 51°16.286 2°54.266 8.5273 3.578617 32.587449 -2.871232
2007-01-23 06:13:02 51°16.287 2°54.268 8.5248 3.585454 32.656655 -2.871232
2007-01-23 06:13:07 51°16.288 2°54.269 8.5318 3.584314 32.645119 -2.871232
2007-01-23 06:13:12 51°16.288 2°54.271 8.5353 3.584314 32.645119 -2.871232
2007-01-23 06:13:17 51°16.29 2°54.271 8.5343 3.583797 32.639876 -2.871232
2007-01-23 06:13:22 51°16.29 2°54.273 8.5362 3.583279 32.631999 -2.871232
2007-01-23 06:13:27 51°16.291 2°54.274 8.5491 3.588251 32.678818 -2.871232
2007-01-23 06:13:32 51°16.293 2°54.275 8.5452 3.588354 32.677229 -2.871232
2007-01-23 06:13:37 51°16.293 2°54.275 8.5457 3.588354 32.674593 -2.871232
2007-01-23 06:13:42 51°16.294 2°54.276 8.5395 3.588354 32.674593 -2.871232
2007-01-23 06:13:47 51°16.295 2°54.277 8.5377 3.584004 32.627927 -2.871232
2007-01-23 06:13:52 51°16.296 2°54.277 8.5394 3.585039 32.636654 -2.871232
2007-01-23 06:13:57 51°16.297 2°54.277 8.5405 3.582968 32.611306 -2.871232
2007-01-23 06:14:02 51°16.298 2°54.278 8.5344 3.585454 32.633826 -2.871232
2007-01-23 06:14:07 51°16.299 2°54.278 8.5368 3.588768 32.666486 -2.871232
2007-01-23 06:14:12 51°16.3 2°54.279 8.53 3.588768 32.666486 -2.871232
2007-01-23 06:14:17 51°16.301 2°54.28 8.531 3.586386 32.64238 -2.871232
2007-01-23 06:14:21 51°16.302 2°54.28 8.5342 3.591151 32.692352 -2.871232
2007-01-23 06:14:27 51°16.303 2°54.281 8.5359 3.590218 32.683797 -2.871232
2007-01-23 06:14:32 51°16.304 2°54.282 8.5303 3.587111 32.65235 -2.871232
2007-01-23 06:14:37 51°16.305 2°54.282 8.5328 3.590115 32.684506 -2.871232
2007-01-23 06:14:42 51°16.306 2°54.283 8.5302 3.590115 32.684506 -2.871232
2007-01-23 06:14:46 51°16.307 2°54.284 8.528 3.589908 32.685046 -2.871232
2007-01-23 06:14:52 51°16.308 2°54.285 8.5296 3.590633 32.693264 -2.871232
2007-01-23 06:14:57 51°16.31 2°54.284 8.5278 3.589804 32.684877 -2.871232
2007-01-23 06:15:02 51°16.311 2°54.285 8.5275 3.590529 32.692216 -2.871232
2007-01-23 06:15:07 51°16.312 2°54.285 8.5267 3.590736 32.696071 -2.871232
2007-01-23 06:15:12 51°16.312 2°54.287 8.5289 3.590736 32.696071 -2.871232
2007-01-23 06:15:17 51°16.314 2°54.286 8.5291 3.585661 32.645577 -2.871232
2007-01-23 06:15:22 51°16.314 2°54.287 8.5266 3.590633 32.697661 -2.871232
2007-01-23 06:15:26 51°16.315 2°54.286 8.5338 3.584936 32.640872 -2.871232
2007-01-23 06:15:32 51°16.316 2°54.287 8.5335 3.588665 32.679496 -2.871232
2007-01-23 06:15:37 51°16.317 2°54.287 8.5358 3.582036 32.612397 -2.871232
2007-01-23 06:15:42 51°16.317 2°54.287 8.5339 3.582036 32.612397 -2.871232
2007-01-23 06:15:47 51°16.319 2°54.287 8.5326 3.586904 32.660792 -2.871232
2007-01-23 06:15:52 51°16.319 2°54.287 8.5291 3.585454 32.645236 -2.871232
2007-01-23 06:15:57 51°16.32 2°54.287 8.5316 3.590529 32.695733 -2.871232
2007-01-23 06:16:02 51°16.32 2°54.286 8.5348 3.591254 32.701314 -2.871232
2007-01-23 06:16:07 51°16.32 2°54.286 8.5347 3.591772 32.705677 -2.871232
2007-01-23 06:16:12 51°16.321 2°54.286 8.5349 3.591772 32.705677 -2.871232
2007-01-23 06:16:17 51°16.321 2°54.285 8.5302 3.58535 32.640676 -2.871232
2007-01-23 06:16:21 51°16.321 2°54.285 8.5312 3.582968 32.617445 -2.871232
2007-01-23 06:16:27 51°16.321 2°54.284 8.5317 3.592912 32.718972 -2.871232
2007-01-23 06:16:32 51°16.321 2°54.284 8.5318 3.590736 32.695192 -2.871232
2007-01-23 06:16:37 51°16.322 2°54.283 8.5371 3.586179 32.649062 -2.871232
2007-01-23 06:16:42 51°16.322 2°54.283 8.5336 3.586179 32.649062 -2.871232
2007-01-23 06:16:47 51°16.322 2°54.282 8.5329 3.588147 32.669859 -2.871232
2007-01-23 06:16:52 51°16.322 2°54.281 8.538 3.590944 32.699927 -2.871232
2007-01-23 06:16:57 51°16.322 2°54.28 8.5397 3.593015 32.7209 -2.871232
2007-01-23 06:17:02 51°16.322 2°54.28 8.5335 3.58825 32.672665 -2.871232
2007-01-23 06:17:07 51°16.322 2°54.279 8.5388 3.59343 32.724215 -2.871232
2007-01-23 06:17:12 51°16.322 2°54.278 8.5381 3.59343 32.724215 -2.871232
2007-01-23 06:17:17 51°16.322 2°54.277 8.5377 3.588665 32.67598 -2.871232
2007-01-23 06:17:22 51°16.322 2°54.276 8.5353 3.587733 32.665666 -2.871232
2007-01-23 06:17:26 51°16.321 2°54.276 8.5432 3.575613 32.541288 -2.871232
2007-01-23 06:17:32 51°16.321 2°54.275 8.5414 3.581725 32.603114 -2.871232
2007-01-23 06:17:37 51°16.321 2°54.273 8.5386 3.592497 32.711258 -2.871232
2007-01-23 06:17:42 51°16.321 2°54.273 8.5384 3.592497 32.711258 -2.871232
2007-01-23 06:17:47 51°16.321 2°54.272 8.5405 3.592705 32.712475 -2.871232
2007-01-23 06:17:52 51°16.32 2°54.271 8.5415 3.589286 32.678756 -2.871232
2007-01-23 06:17:57 51°16.32 2°54.27 8.5414 3.591254 32.696917 -2.871232
2007-01-23 06:18:02 51°16.32 2°54.269 8.5429 3.590218 32.685554 -2.871232
2007-01-23 06:18:07 51°16.32 2°54.268 8.5468 3.594258 32.727323 -2.871232
2007-01-23 06:18:12 51°16.32 2°54.267 8.554 3.594258 32.727323 -2.871232
2007-01-23 06:18:17 51°16.319 2°54.266 8.5453 3.584936 32.632973 -2.871232
2007-01-23 06:18:22 51°16.319 2°54.265 8.5485 3.591772 32.70128 -2.871232
2007-01-23 06:18:27 51°16.318 2°54.265 8.5491 3.59488 32.732735 -2.871232
2007-01-23 06:18:32 51°16.318 2°54.263 8.55 3.587836 32.659687 -2.871232
2007-01-23 06:18:37 51°16.318 2°54.263 8.5503 3.590218 32.682039 -2.871232
2007-01-23 06:18:42 51°16.318 2°54.261 8.5536 3.590218 32.682039 -2.871232
2007-01-23 06:18:47 51°16.317 2°54.261 8.5542 3.590944 32.687619 -2.871232
2007-01-23 06:18:52 51°16.317 2°54.26 8.556 3.595398 32.732696 -2.871232
2007-01-23 06:18:57 51°16.316 2°54.259 8.5561 3.592808 32.705608 -2.871232
2007-01-23 06:19:02 51°16.316 2°54.258 8.5567 3.591047 32.686031 -2.871232
2007-01-23 06:19:07 51°16.316 2°54.258 8.5589 3.587111 32.644451 -2.871232
2007-01-23 06:19:12 51°16.315 2°54.256 8.558 3.587111 32.644451 -2.871232
2007-01-23 06:19:17 51°16.315 2°54.256 8.5601 3.590736 32.679372 -2.871232
2007-01-23 06:19:22 51°16.314 2°54.255 8.5672 3.594362 32.715176 -2.871232
2007-01-23 06:19:27 51°16.314 2°54.254 8.5694 3.59374 32.708008 -2.871232
2007-01-23 06:19:32 51°16.314 2°54.253 8.5682 3.586282 32.631682 -2.871232
2007-01-23 06:19:37 51°16.313 2°54.253 8.5723 3.586075 32.628709 -2.871232
2007-01-23 06:19:42 51°16.313 2°54.252 8.5713 3.586075 32.628709 -2.871232
2007-01-23 06:19:46 51°16.312 2°54.252 8.5728 3.597055 32.738909 -2.871232
2007-01-23 06:19:52 51°16.312 2°54.251 8.5773 3.596641 32.732957 -2.871232
2007-01-23 06:19:57 51°16.312 2°54.251 8.5727 3.596951 32.732582 -2.871232
2007-01-23 06:20:02 51°16.311 2°54.25 8.5786 3.599023 32.751783 -2.871232
2007-01-23 06:20:07 51°16.311 2°54.25 8.5786 3.597469 32.733424 -2.871232
2007-01-23 06:20:12 51°16.31 2°54.25 8.5827 3.597469 32.733424 -2.871232
2007-01-23 06:20:17 51°16.31 2°54.249 8.578 3.595708 32.713853 -2.871232
2007-01-23 06:20:22 51°16.31 2°54.249 8.5834 3.591979 32.674383 -2.871232
2007-01-23 06:20:27 51°16.309 2°54.248 8.5842 3.591358 32.66722 -2.871232
2007-01-23 06:20:32 51°16.309 2°54.248 8.5811 3.599852 32.752246 -2.871232
2007-01-23 06:20:37 51°16.308 2°54.248 8.5805 3.59519 32.703343 -2.871232
2007-01-23 06:20:42 51°16.308 2°54.248 8.5795 3.59519 32.703343 -2.871232
2007-01-23 06:20:47 51°16.308 2°54.247 8.5824 3.599126 32.741393 -2.871232
2007-01-23 06:20:52 51°16.308 2°54.247 8.5807 3.590943 32.658644 -2.871232
2007-01-23 06:20:57 51°16.307 2°54.246 8.5823 3.600577 32.754301 -2.871232
2007-01-23 06:21:02 51°16.307 2°54.246 8.5831 3.596122 32.708377 -2.871232
2007-01-23 06:21:07 51°16.307 2°54.246 8.5854 3.601509 32.76285 -2.871232
2007-01-23 06:21:12 51°16.306 2°54.246 8.5866 3.601509 32.76285 -2.871232
2007-01-23 06:21:17 51°16.306 2°54.245 8.5836 3.600887 32.756564 -2.871232
2007-01-23 06:21:22 51°16.306 2°54.245 8.5845 3.598919 32.73666 -2.871232
2007-01-23 06:21:27 51°16.306 2°54.244 8.5871 3.60327 32.779781 -2.871232
2007-01-23 06:21:32 51°16.305 2°54.244 8.5827 3.602441 32.7714 -2.871232
2007-01-23 06:21:37 51°16.305 2°54.243 8.5844 3.603684 32.782211 -2.871232
2007-01-23 06:21:42 51°16.305 2°54.243 8.5889 3.603684 32.782211 -2.871232
2007-01-23 06:21:46 51°16.304 2°54.243 8.5868 3.601612 32.760378 -2.871232
2007-01-23 06:21:52 51°16.304 2°54.242 8.5888 3.604202 32.786569 -2.871232
2007-01-23 06:21:57 51°16.304 2°54.242 8.5862 3.604409 32.788665 -2.871232
2007-01-23 06:22:02 51°16.304 2°54.242 8.5902 3.604513 32.790593 -2.871232
2007-01-23 06:22:07 51°16.304 2°54.242 8.5871 3.601923 32.764401 -2.871232
2007-01-23 06:22:12 51°16.304 2°54.241 8.5906 3.601923 32.764401 -2.871232
2007-01-23 06:22:17 51°16.303 2°54.241 8.5921 3.604824 32.791975 -2.871232
2007-01-23 06:22:22 51°16.303 2°54.241 8.5941 3.604927 32.792142 -2.871232
2007-01-23 06:22:27 51°16.303 2°54.24 8.5966 3.604824 32.790214 -2.871232
2007-01-23 06:22:32 51°16.303 2°54.24 8.5982 3.605134 32.793357 -2.871232
2007-01-23 06:22:37 51°16.303 2°54.239 8.596 3.604927 32.790381 -2.871232
2007-01-23 06:22:42 51°16.303 2°54.239 8.5972 3.604927 32.790381 -2.871232
2007-01-23 06:22:47 51°16.302 2°54.239 8.601 3.605445 32.795619 -2.871232
2007-01-23 06:22:52 51°16.302 2°54.239 8.599 3.605652 32.795953 -2.871232
2007-01-23 06:22:57 51°16.302 2°54.238 8.5961 3.605652 32.794192 -2.871232
2007-01-23 06:23:02 51°16.302 2°54.238 8.5924 3.605445 32.790336 -2.871232
2007-01-23 06:23:07 51°16.302 2°54.237 8.593 3.606067 32.79574 -2.871232
2007-01-23 06:23:12 51°16.301 2°54.237 8.5939 3.606067 32.79574 -2.871232
2007-01-23 06:23:17 51°16.301 2°54.237 8.5862 3.606377 32.797121 -2.871232
2007-01-23 06:23:22 51°16.301 2°54.237 8.5815 3.606481 32.797288 -2.871232
2007-01-23 06:23:27 51°16.301 2°54.236 8.5758 3.606377 32.796241 -2.871232
2007-01-23 06:23:32 51°16.301 2°54.236 8.5728 3.606377 32.798002 -2.871232
2007-01-23 06:23:37 51°16.301 2°54.236 8.5738 3.605134 32.786313 -2.871232
2007-01-23 06:23:41 51°16.301 2°54.236 8.5735 3.605134 32.786313 -2.871232
2007-01-23 06:23:47 51°16.3 2°54.235 8.5674 3.605549 32.792264 -2.871232
2007-01-23 06:23:52 51°16.3 2°54.235 8.5684 3.605134 32.791595 -2.871232
2007-01-23 06:23:57 51°16.3 2°54.234 8.5675 3.604202 32.78745 -2.871232
2007-01-23 06:24:02 51°16.3 2°54.234 8.5615 3.603063 32.780327 -2.871232
2007-01-23 06:24:06 51°16.3 2°54.234 8.5608 3.603063 32.782088 -2.871232
2007-01-23 06:24:12 51°16.3 2°54.234 8.5571 3.603063 32.782088 -2.871232
2007-01-23 06:24:17 51°16.3 2°54.234 8.5569 3.602648 32.778777 -2.871232
2007-01-23 06:24:22 51°16.3 2°54.233 8.5571 3.601923 32.774084 -2.871232
2007-01-23 06:24:27 51°16.3 2°54.233 8.5549 3.601198 32.769389 -2.871232
2007-01-23 06:24:32 51°16.3 2°54.233 8.5585 3.600473 32.765575 -2.871232
2007-01-23 06:24:37 51°16.299 2°54.233 8.5561 3.599955 32.762976 -2.871232
2007-01-23 06:24:42 51°16.3 2°54.233 8.5568 3.599955 32.762976 -2.871232
2007-01-23 06:24:47 51°16.299 2°54.233 8.5576 3.59923 32.7574 -2.871232
2007-01-23 06:24:52 51°16.299 2°54.232 8.5534 3.599023 32.757944 -2.871232
2007-01-23 06:24:57 51°16.299 2°54.232 8.5556 3.598298 32.751487 -2.871232
2007-01-23 06:25:02 51°16.3 2°54.232 8.5576 3.597676 32.745198 -2.871232
2007-01-23 06:25:07 51°16.299 2°54.231 8.5548 3.59778 32.746246 -2.871232
2007-01-23 06:25:12 51°16.299 2°54.232 8.5583 3.59778 32.746246 -2.871232
2007-01-23 06:25:17 51°16.299 2°54.231 8.5589 3.597573 32.74503 -2.871232
2007-01-23 06:25:22 51°16.299 2°54.231 8.5574 3.597262 32.742765 -2.871232
2007-01-23 06:25:27 51°16.299 2°54.231 8.5561 3.596951 32.740501 -2.871232
2007-01-23 06:25:32 51°16.299 2°54.231 8.5569 3.596848 32.738572 -2.871232
2007-01-23 06:25:37 51°16.299 2°54.231 8.5577 3.596123 32.732115 -2.871232
2007-01-23 06:25:41 51°16.299 2°54.23 8.559 3.596123 32.732115 -2.871232
2007-01-23 06:25:47 51°16.299 2°54.23 8.5592 3.59633 32.732452 -2.871232
2007-01-23 06:25:52 51°16.299 2°54.23 8.5616 3.595812 32.726331 -2.871232
2007-01-23 06:25:57 51°16.299 2°54.23 8.5561 3.596226 32.730524 -2.871232
2007-01-23 06:26:02 51°16.299 2°54.23 8.5611 3.594983 32.717947 -2.871232
2007-01-23 06:26:07 51°16.299 2°54.23 8.5589 3.595294 32.721091 -2.871232
2007-01-23 06:26:12 51°16.299 2°54.229 8.5611 3.595294 32.721091 -2.871232
2007-01-23 06:26:17 51°16.299 2°54.23 8.5606 3.594983 32.717947 -2.871232
2007-01-23 06:26:22 51°16.299 2°54.229 8.5629 3.594983 32.717947 -2.871232
2007-01-23 06:26:27 51°16.299 2°54.229 8.5618 3.59488 32.716899 -2.871232
2007-01-23 06:26:32 51°16.299 2°54.23 8.5659 3.59488 32.716899 -2.871232
2007-01-23 06:26:37 51°16.299 2°54.23 8.559 3.594776 32.715851 -2.871232
2007-01-23 06:26:42 51°16.299 2°54.23 8.559 3.594776 32.715851 -2.871232
2007-01-23 06:26:47 51°16.298 2°54.229 8.5572 3.594776 32.714092 -2.871232
2007-01-23 06:26:52 51°16.299 2°54.23 8.5563 3.594569 32.711117 -2.871232
2007-01-23 06:26:57 51°16.298 2°54.229 8.5576 3.594154 32.706046 -2.871232
2007-01-23 06:27:02 51°16.298 2°54.229 8.5594 3.594051 32.70412 -2.871232
2007-01-23 06:27:07 51°16.298 2°54.229 8.5623 3.593844 32.702903 -2.871232
2007-01-23 06:27:12 51°16.298 2°54.229 8.5602 3.593844 32.702903 -2.871232
2007-01-23 06:27:17 51°16.298 2°54.229 8.5617 3.593222 32.699252 -2.871232
2007-01-23 06:27:22 51°16.298 2°54.229 8.5654 3.593533 32.703275 -2.871232
2007-01-23 06:27:27 51°16.298 2°54.229 8.5608 3.593326 32.702057 -2.871232
2007-01-23 06:27:32 51°16.298 2°54.229 8.5583 3.593326 32.701179 -2.871232
2007-01-23 06:27:37 51°16.298 2°54.229 8.5561 3.593637 32.702565 -2.871232
2007-01-23 06:27:42 51°16.298 2°54.229 8.5542 3.593637 32.702565 -2.871232
2007-01-23 06:27:47 51°16.297 2°54.229 8.553 3.593533 32.701517 -2.871232
2007-01-23 06:27:52 51°16.298 2°54.229 8.5542 3.593326 32.699421 -2.871232
2007-01-23 06:27:57 51°16.297 2°54.229 8.5555 3.593119 32.697325 -2.871232
2007-01-23 06:28:01 51°16.298 2°54.23 8.5552 3.592911 32.696108 -2.871232
2007-01-23 06:28:07 51°16.297 2°54.229 8.5583 3.592808 32.696818 -2.871232
2007-01-23 06:28:12 51°16.297 2°54.229 8.5575 3.592808 32.696818 -2.871232
2007-01-23 06:28:17 51°16.297 2°54.229 8.5509 3.592497 32.69631 -2.871232
2007-01-23 06:28:22 51°16.297 2°54.229 8.5463 3.591979 32.691949 -2.871232
2007-01-23 06:28:26 51°16.298 2°54.229 8.5507 3.59229 32.694214 -2.871232
2007-01-23 06:28:32 51°16.297 2°54.229 8.5445 3.592083 32.691239 -2.871232
2007-01-23 06:28:37 51°16.297 2°54.229 8.5394 3.592497 32.695431 -2.871232
2007-01-23 06:28:42 51°16.297 2°54.229 8.5417 3.592497 32.695431 -2.871232
2007-01-23 06:28:47 51°16.297 2°54.229 8.5446 3.592083 32.692118 -2.871232
2007-01-23 06:28:52 51°16.297 2°54.229 8.5472 3.591461 32.687587 -2.871232
2007-01-23 06:28:57 51°16.297 2°54.229 8.5461 3.591358 32.689175 -2.871232
2007-01-23 06:29:02 51°16.297 2°54.229 8.5372 3.590943 32.68674 -2.871232
2007-01-23 06:29:07 51°16.297 2°54.229 8.5339 3.590633 32.687111 -2.871232
2007-01-23 06:29:12 51°16.296 2°54.229 8.5337 3.590633 32.687111 -2.871232
2007-01-23 06:29:17 51°16.297 2°54.229 8.5346 3.590426 32.685893 -2.871232
2007-01-23 06:29:22 51°16.296 2°54.229 8.533 3.590426 32.685014 -2.871232
2007-01-23 06:29:27 51°16.297 2°54.229 8.5304 3.590218 32.683797 -2.871232
2007-01-23 06:29:32 51°16.296 2°54.229 8.5307 3.589908 32.682409 -2.871232
2007-01-23 06:29:37 51°16.297 2°54.23 8.5315 3.589493 32.681731 -2.871232
2007-01-23 06:29:42 51°16.296 2°54.229 8.5303 3.589493 32.681731 -2.871232
2007-01-23 06:29:47 51°16.296 2°54.229 8.5287 3.58939 32.681562 -2.871232
2007-01-23 06:29:52 51°16.296 2°54.229 8.5361 3.589079 32.680174 -2.871232
2007-01-23 06:29:57 51°16.296 2°54.229 8.5315 3.588872 32.678956 -2.871232
2007-01-23 06:30:02 51°16.296 2°54.229 8.5321 3.588665 32.678617 -2.871232
2007-01-23 06:30:07 51°16.296 2°54.229 8.5284 3.588561 32.677568 -2.871232
2007-01-23 06:30:12 51°16.296 2°54.229 8.528 3.588561 32.677568 -2.871232
2007-01-23 06:30:17 51°16.296 2°54.229 8.5273 3.588458 32.67652 -2.871232
2007-01-23 06:30:22 51°16.296 2°54.229 8.5324 3.588354 32.675471 -2.871232
2007-01-23 06:30:27 51°16.296 2°54.229 8.5313 3.588147 32.674253 -2.871232
2007-01-23 06:30:32 51°16.296 2°54.229 8.5337 3.588147 32.674253 -2.871232
2007-01-23 06:30:37 51°16.296 2°54.229 8.5334 3.587836 32.672865 -2.871232
2007-01-23 06:30:42 51°16.296 2°54.229 8.5369 3.587836 32.672865 -2.871232
2007-01-23 06:30:47 51°16.295 2°54.228 8.5327 3.587836 32.673744 -2.871232
2007-01-23 06:30:52 51°16.296 2°54.228 8.5356 3.587733 32.672696 -2.871232
2007-01-23 06:30:57 51°16.296 2°54.228 8.5381 3.587733 32.671817 -2.871232
2007-01-23 06:31:02 51°16.295 2°54.228 8.5347 3.587836 32.671986 -2.871232
2007-01-23 06:31:07 51°16.295 2°54.228 8.5361 3.58794 32.671277 -2.871232
2007-01-23 06:31:12 51°16.295 2°54.228 8.5389 3.58794 32.671277 -2.871232
2007-01-23 06:31:17 51°16.295 2°54.228 8.5383 3.588043 32.671447 -2.871232
2007-01-23 06:31:22 51°16.296 2°54.228 8.5399 3.588043 32.670568 -2.871232
2007-01-23 06:31:27 51°16.295 2°54.228 8.5422 3.588147 32.670738 -2.871232
2007-01-23 06:31:32 51°16.296 2°54.228 8.5366 3.58825 32.671787 -2.871232
2007-01-23 06:31:37 51°16.295 2°54.228 8.5341 3.58825 32.671787 -2.871232
2007-01-23 06:31:42 51°16.295 2°54.228 8.5294 3.58825 32.671787 -2.871232
2007-01-23 06:31:47 51°16.296 2°54.228 8.5316 3.588354 32.671078 -2.871232
2007-01-23 06:31:52 51°16.295 2°54.228 8.5283 3.588458 32.671247 -2.871232
2007-01-23 06:31:57 51°16.295 2°54.227 8.5255 3.588561 32.670538 -2.871232
2007-01-23 06:32:02 51°16.296 2°54.228 8.5272 3.588354 32.66932 -2.871232
2007-01-23 06:32:07 51°16.295 2°54.227 8.5251 3.588147 32.669859 -2.871232
2007-01-23 06:32:12 51°16.295 2°54.227 8.5239 3.588147 32.669859 -2.871232
2007-01-23 06:32:17 51°16.295 2°54.227 8.5224 3.587629 32.667253 -2.871232
2007-01-23 06:32:22 51°16.296 2°54.227 8.5212 3.587215 32.664816 -2.871232
2007-01-23 06:32:27 51°16.296 2°54.227 8.5189 3.586697 32.661331 -2.871232
2007-01-23 06:32:32 51°16.296 2°54.227 8.5106 3.586282 32.658894 -2.871232
2007-01-23 06:32:37 51°16.296 2°54.227 8.5129 3.585972 32.655748 -2.871232
2007-01-23 06:32:42 51°16.296 2°54.227 8.5083 3.585972 32.655748 -2.871232
2007-01-23 06:32:47 51°16.296 2°54.227 8.5056 3.585661 32.654359 -2.871232
2007-01-23 06:32:52 51°16.295 2°54.227 8.5011 3.585247 32.6528 -2.871232
2007-01-23 06:32:57 51°16.295 2°54.227 8.5035 3.584936 32.651411 -2.871232
2007-01-23 06:33:02 51°16.295 2°54.226 8.5061 3.584418 32.649682 -2.871232
2007-01-23 06:33:07 51°16.296 2°54.226 8.5021 3.5839 32.647073 -2.871232
2007-01-23 06:33:12 51°16.295 2°54.226 8.5044 3.5839 32.647073 -2.871232
2007-01-23 06:33:17 51°16.296 2°54.226 8.5067 3.583279 32.644294 -2.871232
2007-01-23 06:33:22 51°16.295 2°54.226 8.5016 3.582761 32.641685 -2.871232
2007-01-23 06:33:26 51°16.296 2°54.226 8.4986 3.58245 32.641174 -2.871232
2007-01-23 06:33:32 51°16.296 2°54.226 8.5003 3.582139 32.638027 -2.871232
2007-01-23 06:33:37 51°16.295 2°54.226 8.5013 3.581829 32.634879 -2.871232
2007-01-23 06:33:42 51°16.296 2°54.226 8.5021 3.581829 32.634879 -2.871232
2007-01-23 06:33:47 51°16.296 2°54.226 8.5016 3.581518 32.632611 -2.871232
2007-01-23 06:33:52 51°16.295 2°54.225 8.4987 3.581414 32.630683 -2.871232
2007-01-23 06:33:57 51°16.296 2°54.225 8.5013 3.581 32.629122 -2.871232
2007-01-23 06:34:02 51°16.296 2°54.225 8.5015 3.580689 32.626853 -2.871232
2007-01-23 06:34:07 51°16.296 2°54.225 8.5024 3.580482 32.625633 -2.871232
2007-01-23 06:34:12 51°16.296 2°54.225 8.5011 3.580482 32.625633 -2.871232
2007-01-23 06:34:17 51°16.296 2°54.225 8.503 3.580379 32.624584 -2.871232
2007-01-23 06:34:22 51°16.296 2°54.225 8.5012 3.580379 32.623706 -2.871232
2007-01-23 06:34:27 51°16.296 2°54.225 8.4974 3.580275 32.623535 -2.871232
2007-01-23 06:34:32 51°16.295 2°54.225 8.4957 3.580275 32.622657 -2.871232
2007-01-23 06:34:37 51°16.296 2°54.225 8.4957 3.580171 32.62073 -2.871232
2007-01-23 06:34:42 51°16.296 2°54.225 8.4926 3.580171 32.62073 -2.871232
2007-01-23 06:34:47 51°16.296 2°54.225 8.4865 3.579964 32.618632 -2.871232
2007-01-23 06:34:52 51°16.296 2°54.225 8.4843 3.579964 32.618632 -2.871232
2007-01-23 06:34:57 51°16.296 2°54.225 8.4846 3.579653 32.616363 -2.871232
2007-01-23 06:35:02 51°16.296 2°54.226 8.4838 3.579446 32.616899 -2.871232
2007-01-23 06:35:07 51°16.296 2°54.226 8.4785 3.579239 32.615679 -2.871232
2007-01-23 06:35:12 51°16.296 2°54.226 8.4864 3.579239 32.615679 -2.871232
2007-01-23 06:35:17 51°16.296 2°54.226 8.484 3.578721 32.614824 -2.871232
2007-01-23 06:35:22 51°16.296 2°54.226 8.4846 3.578307 32.61414 -2.871232
2007-01-23 06:35:26 51°16.296 2°54.226 8.4792 3.577893 32.611699 -2.871232
2007-01-23 06:35:32 51°16.296 2°54.226 8.4828 3.577686 32.612235 -2.871232
2007-01-23 06:35:37 51°16.296 2°54.226 8.4783 3.577478 32.610136 -2.871232
2007-01-23 06:35:42 51°16.296 2°54.226 8.4823 3.577478 32.610136 -2.871232
2007-01-23 06:35:47 51°16.296 2°54.226 8.4802 3.577375 32.609086 -2.871232
2007-01-23 06:35:52 51°16.296 2°54.225 8.4792 3.577375 32.609965 -2.871232
2007-01-23 06:35:57 51°16.296 2°54.225 8.4789 3.577168 32.608744 -2.871232
2007-01-23 06:36:02 51°16.296 2°54.225 8.4797 3.577168 32.609623 -2.871232
2007-01-23 06:36:07 51°16.296 2°54.225 8.4776 3.577064 32.609451 -2.871232
2007-01-23 06:36:12 51°16.296 2°54.225 8.4804 3.577064 32.609451 -2.871232
2007-01-23 06:36:17 51°16.297 2°54.225 8.4782 3.576961 32.608402 -2.871232
2007-01-23 06:36:22 51°16.296 2°54.225 8.4801 3.576857 32.608231 -2.871232
2007-01-23 06:36:27 51°16.297 2°54.224 8.478 3.576857 32.608231 -2.871232
2007-01-23 06:36:32 51°16.297 2°54.224 8.4783 3.576753 32.60806 -2.871232
2007-01-23 06:36:37 51°16.297 2°54.224 8.478 3.576753 32.60806 -2.871232
2007-01-23 06:36:42 51°16.297 2°54.224 8.4773 3.576753 32.60806 -2.871232
2007-01-23 06:36:47 51°16.297 2°54.224 8.4789 3.57665 32.606132 -2.871232
2007-01-23 06:36:52 51°16.297 2°54.224 8.4787 3.57665 32.60701 -2.871232
2007-01-23 06:36:57 51°16.296 2°54.225 8.4841 3.576546 32.606839 -2.871232
2007-01-23 06:37:02 51°16.297 2°54.224 8.4756 3.576443 32.606668 -2.871232
2007-01-23 06:37:07 51°16.297 2°54.225 8.4776 3.576546 32.607717 -2.871232
2007-01-23 06:37:12 51°16.297 2°54.224 8.4793 3.576546 32.607717 -2.871232
2007-01-23 06:37:17 51°16.297 2°54.224 8.4798 3.576443 32.606668 -2.871232
2007-01-23 06:37:22 51°16.297 2°54.224 8.4819 3.576443 32.605789 -2.871232
2007-01-23 06:37:27 51°16.297 2°54.224 8.4805 3.576546 32.605082 -2.871232
2007-01-23 06:37:32 51°16.297 2°54.224 8.481 3.576443 32.604911 -2.871232
2007-01-23 06:37:37 51°16.297 2°54.224 8.4838 3.576443 32.606668 -2.871232
2007-01-23 06:37:42 51°16.297 2°54.224 8.4827 3.576443 32.606668 -2.871232
2007-01-23 06:37:46 51°16.297 2°54.224 8.479 3.576443 32.606668 -2.871232
2007-01-23 06:37:52 51°16.297 2°54.224 8.4856 3.576546 32.60596 -2.871232
2007-01-23 06:37:57 51°16.298 2°54.224 8.4832 3.57665 32.606132 -2.871232
2007-01-23 06:38:02 51°16.298 2°54.224 8.4823 3.576753 32.606303 -2.871232
2007-01-23 06:38:07 51°16.298 2°54.224 8.4854 3.576857 32.607352 -2.871232
2007-01-23 06:38:12 51°16.298 2°54.224 8.4841 3.576857 32.607352 -2.871232
2007-01-23 06:38:17 51°16.298 2°54.224 8.4818 3.576753 32.606303 -2.871232
2007-01-23 06:38:22 51°16.299 2°54.224 8.4842 3.576857 32.607352 -2.871232
2007-01-23 06:38:27 51°16.298 2°54.224 8.4797 3.576857 32.606474 -2.871232
2007-01-23 06:38:32 51°16.299 2°54.224 8.4819 3.576961 32.606645 -2.871232
2007-01-23 06:38:37 51°16.299 2°54.224 8.4795 3.576961 32.606645 -2.871232
2007-01-23 06:38:42 51°16.299 2°54.224 8.4836 3.576961 32.606645 -2.871232
2007-01-23 06:38:47 51°16.299 2°54.224 8.4839 3.577064 32.606816 -2.871232
2007-01-23 06:38:52 51°16.299 2°54.224 8.4811 3.577064 32.607695 -2.871232
2007-01-23 06:38:57 51°16.299 2°54.224 8.4771 3.577064 32.608573 -2.871232
2007-01-23 06:39:02 51°16.3 2°54.224 8.4785 3.576961 32.608402 -2.871232
2007-01-23 06:39:07 51°16.299 2°54.225 8.479 3.576961 32.60928 -2.871232
2007-01-23 06:39:12 51°16.3 2°54.225 8.4807 3.576961 32.60928 -2.871232
2007-01-23 06:39:17 51°16.3 2°54.225 8.4784 3.577064 32.609451 -2.871232
2007-01-23 06:39:22 51°16.3 2°54.225 8.479 3.577064 32.609451 -2.871232
2007-01-23 06:39:27 51°16.3 2°54.225 8.4778 3.577064 32.611208 -2.871232
2007-01-23 06:39:32 51°16.3 2°54.225 8.4803 3.576961 32.611037 -2.871232
2007-01-23 06:39:37 51°16.3 2°54.225 8.4796 3.577064 32.612087 -2.871232
2007-01-23 06:39:42 51°16.3 2°54.225 8.4805 3.577064 32.612087 -2.871232
2007-01-23 06:39:47 51°16.3 2°54.225 8.479 3.577064 32.612087 -2.871232
2007-01-23 06:39:52 51°16.3 2°54.225 8.4762 3.577064 32.612966 -2.871232
2007-01-23 06:39:57 51°16.3 2°54.225 8.4802 3.577064 32.612966 -2.871232
2007-01-23 06:40:02 51°16.3 2°54.225 8.4797 3.577168 32.613137 -2.871232
2007-01-23 06:40:07 51°16.301 2°54.225 8.4805 3.577168 32.612258 -2.871232
2007-01-23 06:40:12 51°16.3 2°54.226 8.4819 3.577168 32.612258 -2.871232
2007-01-23 06:40:17 51°16.301 2°54.225 8.4843 3.577168 32.612258 -2.871232
2007-01-23 06:40:22 51°16.3 2°54.225 8.4809 3.577271 32.614186 -2.871232
2007-01-23 06:40:27 51°16.301 2°54.225 8.4813 3.577271 32.615065 -2.871232
2007-01-23 06:40:32 51°16.301 2°54.225 8.4854 3.577271 32.614186 -2.871232
2007-01-23 06:40:37 51°16.301 2°54.226 8.4804 3.577375 32.614357 -2.871232
2007-01-23 06:40:42 51°16.301 2°54.226 8.4819 3.577375 32.614357 -2.871232
2007-01-23 06:40:47 51°16.301 2°54.226 8.4758 3.577375 32.613479 -2.871232
2007-01-23 06:40:52 51°16.301 2°54.225 8.4765 3.577582 32.615578 -2.871232
2007-01-23 06:40:57 51°16.301 2°54.226 8.4744 3.577479 32.614528 -2.871232
2007-01-23 06:41:02 51°16.302 2°54.225 8.4726 3.577582 32.615578 -2.871232
2007-01-23 06:41:07 51°16.301 2°54.226 8.473 3.577479 32.615407 -2.871232
2007-01-23 06:41:12 51°16.302 2°54.225 8.4751 3.577479 32.615407 -2.871232
2007-01-23 06:41:17 51°16.301 2°54.226 8.4734 3.577479 32.616286 -2.871232
2007-01-23 06:41:22 51°16.302 2°54.225 8.469 3.577375 32.616993 -2.871232
2007-01-23 06:41:27 51°16.301 2°54.226 8.4697 3.577271 32.617701 -2.871232
2007-01-23 06:41:32 51°16.302 2°54.225 8.4686 3.577168 32.61753 -2.871232
2007-01-23 06:41:37 51°16.301 2°54.226 8.4637 3.577168 32.61753 -2.871232
2007-01-23 06:41:42 51°16.302 2°54.225 8.4662 3.577168 32.61753 -2.871232
2007-01-23 06:41:47 51°16.302 2°54.225 8.4676 3.577064 32.617359 -2.871232
2007-01-23 06:41:52 51°16.302 2°54.225 8.4648 3.576961 32.617188 -2.871232
2007-01-23 06:41:57 51°16.302 2°54.225 8.4677 3.57665 32.616675 -2.871232
2007-01-23 06:42:02 51°16.302 2°54.225 8.4619 3.576546 32.616504 -2.871232
2007-01-23 06:42:07 51°16.302 2°54.225 8.4612 3.576236 32.615991 -2.871232
2007-01-23 06:42:12 51°16.302 2°54.225 8.4619 3.576236 32.615991 -2.871232
2007-01-23 06:42:17 51°16.302 2°54.225 8.4601 3.576132 32.614941 -2.871232
2007-01-23 06:42:22 51°16.302 2°54.225 8.464 3.576029 32.613891 -2.871232
2007-01-23 06:42:27 51°16.302 2°54.225 8.4619 3.575925 32.61372 -2.871232
2007-01-23 06:42:32 51°16.302 2°54.225 8.4589 3.575718 32.612499 -2.871232
2007-01-23 06:42:37 51°16.302 2°54.225 8.4634 3.575511 32.611278 -2.871232
2007-01-23 06:42:42 51°16.302 2°54.225 8.464 3.575511 32.611278 -2.871232
2007-01-23 06:42:47 51°16.302 2°54.225 8.4605 3.575304 32.610936 -2.871232
2007-01-23 06:42:52 51°16.302 2°54.225 8.4622 3.575096 32.609715 -2.871232
2007-01-23 06:42:57 51°16.302 2°54.225 8.458 3.575096 32.608836 -2.871232
2007-01-23 06:43:02 51°16.302 2°54.225 8.4594 3.574889 32.608494 -2.871232
2007-01-23 06:43:07 51°16.302 2°54.225 8.4661 3.574786 32.606564 -2.871232
2007-01-23 06:43:12 51°16.301 2°54.225 8.4682 3.574786 32.606564 -2.871232
2007-01-23 06:43:17 51°16.302 2°54.225 8.46 3.574682 32.606393 -2.871232
2007-01-23 06:43:22 51°16.302 2°54.225 8.4579 3.574579 32.605343 -2.871232
2007-01-23 06:43:27 51°16.301 2°54.225 8.4585 3.574475 32.604293 -2.871232
2007-01-23 06:43:32 51°16.301 2°54.225 8.4591 3.574475 32.604293 -2.871232
2007-01-23 06:43:37 51°16.302 2°54.225 8.4612 3.574475 32.602535 -2.871232
2007-01-23 06:43:42 51°16.301 2°54.225 8.4558 3.574475 32.602535 -2.871232
2007-01-23 06:43:47 51°16.301 2°54.225 8.4565 3.574371 32.600607 -2.871232
2007-01-23 06:43:52 51°16.301 2°54.225 8.4559 3.574164 32.600264 -2.871232
2007-01-23 06:43:57 51°16.301 2°54.225 8.4559 3.573957 32.599921 -2.871232
2007-01-23 06:44:02 51°16.301 2°54.225 8.4578 3.57375 32.5987 -2.871232
2007-01-23 06:44:07 51°16.301 2°54.225 8.4621 3.573646 32.59765 -2.871232
2007-01-23 06:44:12 51°16.301 2°54.225 8.4579 3.573646 32.59765 -2.871232
2007-01-23 06:44:17 51°16.301 2°54.225 8.456 3.573543 32.597478 -2.871232
2007-01-23 06:44:22 51°16.301 2°54.225 8.4552 3.573336 32.596257 -2.871232
2007-01-23 06:44:27 51°16.301 2°54.225 8.4586 3.573128 32.595035 -2.871232
2007-01-23 06:44:32 51°16.3 2°54.224 8.4529 3.573025 32.593985 -2.871232
2007-01-23 06:44:37 51°16.301 2°54.224 8.4547 3.573025 32.592227 -2.871232
2007-01-23 06:44:42 51°16.3 2°54.224 8.4567 3.573025 32.592227 -2.871232
2007-01-23 06:44:47 51°16.3 2°54.224 8.4555 3.573025 32.593106 -2.871232
2007-01-23 06:44:52 51°16.3 2°54.224 8.4599 3.572818 32.591884 -2.871232
2007-01-23 06:44:57 51°16.3 2°54.224 8.4567 3.572714 32.590834 -2.871232
2007-01-23 06:45:02 51°16.3 2°54.224 8.4532 3.572714 32.590834 -2.871232
2007-01-23 06:45:07 51°16.3 2°54.224 8.4559 3.572611 32.590663 -2.871232
2007-01-23 06:45:12 51°16.3 2°54.224 8.4576 3.572611 32.590663 -2.871232
2007-01-23 06:45:17 51°16.3 2°54.224 8.4538 3.572507 32.589612 -2.871232
2007-01-23 06:45:22 51°16.3 2°54.224 8.4538 3.572507 32.588734 -2.871232
2007-01-23 06:45:27 51°16.3 2°54.224 8.4508 3.572507 32.588734 -2.871232
2007-01-23 06:45:32 51°16.299 2°54.224 8.4551 3.5723 32.587512 -2.871232
2007-01-23 06:45:37 51°16.299 2°54.224 8.4586 3.5723 32.587512 -2.871232
2007-01-23 06:45:42 51°16.3 2°54.224 8.4583 3.5723 32.587512 -2.871232
2007-01-23 06:45:47 51°16.299 2°54.224 8.4547 3.571989 32.58524 -2.871232
2007-01-23 06:45:52 51°16.3 2°54.224 8.4589 3.571885 32.58419 -2.871232
2007-01-23 06:45:57 51°16.299 2°54.224 8.4524 3.571782 32.584018 -2.871232
2007-01-23 06:46:02 51°16.3 2°54.224 8.4537 3.571782 32.584897 -2.871232
2007-01-23 06:46:07 51°16.299 2°54.224 8.4593 3.571678 32.582089 -2.871232
2007-01-23 06:46:12 51°16.3 2°54.224 8.4595 3.571678 32.582089 -2.871232
2007-01-23 06:46:17 51°16.299 2°54.225 8.4568 3.571678 32.581211 -2.871232
2007-01-23 06:46:22 51°16.299 2°54.224 8.4562 3.571575 32.580161 -2.871232
2007-01-23 06:46:27 51°16.299 2°54.225 8.4569 3.571575 32.580161 -2.871232
2007-01-23 06:46:32 51°16.299 2°54.225 8.4577 3.571471 32.579111 -2.871232
2007-01-23 06:46:37 51°16.299 2°54.225 8.4558 3.571575 32.578404 -2.871232
2007-01-23 06:46:42 51°16.299 2°54.225 8.4556 3.571575 32.578404 -2.871232
2007-01-23 06:46:47 51°16.299 2°54.225 8.4618 3.571471 32.577354 -2.871232
2007-01-23 06:46:52 51°16.299 2°54.225 8.4605 3.571471 32.577354 -2.871232
2007-01-23 06:46:57 51°16.299 2°54.225 8.458 3.571368 32.577182 -2.871232
2007-01-23 06:47:02 51°16.299 2°54.225 8.4569 3.571368 32.577182 -2.871232
2007-01-23 06:47:07 51°16.299 2°54.225 8.4567 3.571264 32.57701 -2.871232
2007-01-23 06:47:12 51°16.299 2°54.225 8.4584 3.571264 32.57701 -2.871232
2007-01-23 06:47:17 51°16.299 2°54.225 8.4592 3.571264 32.575254 -2.871232
2007-01-23 06:47:22 51°16.299 2°54.225 8.4564 3.571471 32.575598 -2.871232
2007-01-23 06:47:27 51°16.299 2°54.224 8.456 3.571368 32.574548 -2.871232
2007-01-23 06:47:32 51°16.299 2°54.225 8.4541 3.571264 32.575254 -2.871232
2007-01-23 06:47:37 51°16.299 2°54.224 8.4551 3.57116 32.574204 -2.871232
2007-01-23 06:47:42 51°16.299 2°54.224 8.459 3.57116 32.574204 -2.871232
2007-01-23 06:47:47 51°16.3 2°54.224 8.4577 3.570953 32.572982 -2.871232
2007-01-23 06:47:52 51°16.299 2°54.224 8.4593 3.57085 32.571932 -2.871232
2007-01-23 06:47:57 51°16.3 2°54.223 8.456 3.570746 32.57176 -2.871232
2007-01-23 06:48:02 51°16.299 2°54.224 8.4575 3.570539 32.570538 -2.871232
2007-01-23 06:48:07 51°16.3 2°54.223 8.4562 3.570435 32.568609 -2.871232
2007-01-23 06:48:12 51°16.299 2°54.224 8.4565 3.570435 32.568609 -2.871232
2007-01-23 06:48:17 51°16.3 2°54.223 8.4541 3.570435 32.567731 -2.871232
2007-01-23 06:48:22 51°16.3 2°54.223 8.4544 3.570435 32.566853 -2.871232
2007-01-23 06:48:27 51°16.3 2°54.223 8.455 3.570435 32.566853 -2.871232
2007-01-23 06:48:32 51°16.3 2°54.223 8.4524 3.570332 32.566681 -2.871232
2007-01-23 06:48:37 51°16.3 2°54.223 8.4587 3.570228 32.565631 -2.871232
2007-01-23 06:48:42 51°16.299 2°54.223 8.4563 3.570228 32.565631 -2.871232
2007-01-23 06:48:47 51°16.3 2°54.222 8.4563 3.570125 32.564581 -2.871232
2007-01-23 06:48:52 51°16.3 2°54.222 8.4551 3.570021 32.565287 -2.871232
2007-01-23 06:48:57 51°16.3 2°54.222 8.455 3.569814 32.564065 -2.871232
2007-01-23 06:49:02 51°16.3 2°54.222 8.4572 3.569607 32.562842 -2.871232
2007-01-23 06:49:07 51°16.3 2°54.222 8.4546 3.569607 32.561964 -2.871232
2007-01-23 06:49:12 51°16.301 2°54.221 8.4571 3.569607 32.561964 -2.871232
2007-01-23 06:49:17 51°16.3 2°54.221 8.4541 3.569607 32.561087 -2.871232
2007-01-23 06:49:22 51°16.3 2°54.221 8.4579 3.569503 32.560914 -2.871232
2007-01-23 06:49:27 51°16.3 2°54.221 8.4575 3.5694 32.559864 -2.871232
2007-01-23 06:49:32 51°16.3 2°54.221 8.4579 3.5694 32.558986 -2.871232
2007-01-23 06:49:37 51°16.3 2°54.221 8.459 3.569296 32.557936 -2.871232
2007-01-23 06:49:42 51°16.3 2°54.221 8.4584 3.569296 32.557936 -2.871232
2007-01-23 06:49:47 51°16.3 2°54.221 8.4634 3.5694 32.558109 -2.871232
2007-01-23 06:49:52 51°16.3 2°54.22 8.4645 3.5694 32.558109 -2.871232
2007-01-23 06:49:57 51°16.301 2°54.22 8.456 3.569296 32.557059 -2.871232
2007-01-23 06:50:02 51°16.3 2°54.22 8.4551 3.5694 32.558109 -2.871232
2007-01-23 06:50:07 51°16.301 2°54.22 8.4551 3.5694 32.557231 -2.871232
2007-01-23 06:50:12 51°16.301 2°54.22 8.4537 3.5694 32.557231 -2.871232
2007-01-23 06:50:17 51°16.301 2°54.22 8.4555 3.569503 32.558281 -2.871232
2007-01-23 06:50:22 51°16.301 2°54.22 8.4567 3.569607 32.557576 -2.871232
2007-01-23 06:50:27 51°16.301 2°54.22 8.4572 3.569607 32.558453 -2.871232
2007-01-23 06:50:32 51°16.301 2°54.219 8.4604 3.569503 32.558281 -2.871232
2007-01-23 06:50:37 51°16.301 2°54.219 8.4594 3.5694 32.558986 -2.871232
2007-01-23 06:50:42 51°16.301 2°54.219 8.463 3.5694 32.558986 -2.871232
2007-01-23 06:50:47 51°16.301 2°54.219 8.4627 3.5694 32.559864 -2.871232
2007-01-23 06:50:52 51°16.3 2°54.219 8.4611 3.5694 32.558986 -2.871232
2007-01-23 06:50:57 51°16.301 2°54.219 8.4572 3.5694 32.558109 -2.871232
2007-01-23 06:51:02 51°16.301 2°54.219 8.4611 3.569503 32.558281 -2.871232
2007-01-23 06:51:07 51°16.301 2°54.219 8.4664 3.569607 32.557576 -2.871232
2007-01-23 06:51:12 51°16.301 2°54.219 8.4664 3.569607 32.557576 -2.871232
2007-01-23 06:51:17 51°16.3 2°54.219 8.4613 3.569607 32.557576 -2.871232
2007-01-23 06:51:22 51°16.301 2°54.219 8.4695 3.569607 32.557576 -2.871232
2007-01-23 06:51:27 51°16.301 2°54.22 8.468 3.569503 32.556526 -2.871232
2007-01-23 06:51:32 51°16.301 2°54.219 8.4622 3.569607 32.556698 -2.871232
2007-01-23 06:51:37 51°16.301 2°54.219 8.4611 3.569607 32.55582 -2.871232
2007-01-23 06:51:42 51°16.301 2°54.219 8.4612 3.569607 32.55582 -2.871232
2007-01-23 06:51:47 51°16.301 2°54.219 8.4649 3.569814 32.556165 -2.871232
2007-01-23 06:51:52 51°16.301 2°54.22 8.4615 3.569917 32.556337 -2.871232
2007-01-23 06:51:57 51°16.301 2°54.22 8.4633 3.570021 32.55651 -2.871232
2007-01-23 06:52:02 51°16.302 2°54.22 8.463 3.570021 32.557387 -2.871232
2007-01-23 06:52:07 51°16.302 2°54.22 8.463 3.569917 32.558092 -2.871232
2007-01-23 06:52:12 51°16.301 2°54.22 8.4627 3.569917 32.558092 -2.871232
2007-01-23 06:52:17 51°16.302 2°54.22 8.4638 3.569814 32.557042 -2.871232
2007-01-23 06:52:22 51°16.302 2°54.22 8.4645 3.56971 32.55687 -2.871232
2007-01-23 06:52:27 51°16.301 2°54.22 8.4597 3.56971 32.55687 -2.871232
2007-01-23 06:52:32 51°16.301 2°54.22 8.4663 3.56971 32.55687 -2.871232
2007-01-23 06:52:37 51°16.302 2°54.22 8.468 3.569814 32.557042 -2.871232
2007-01-23 06:52:42 51°16.301 2°54.22 8.4693 3.569814 32.557042 -2.871232
2007-01-23 06:52:47 51°16.302 2°54.22 8.4653 3.569814 32.557042 -2.871232
2007-01-23 06:52:52 51°16.301 2°54.22 8.4641 3.569917 32.557215 -2.871232
2007-01-23 06:52:57 51°16.302 2°54.22 8.4587 3.569814 32.556165 -2.871232
2007-01-23 06:53:02 51°16.301 2°54.22 8.459 3.569814 32.556165 -2.871232
2007-01-23 06:53:07 51°16.302 2°54.22 8.4614 3.569814 32.555287 -2.871232
2007-01-23 06:53:12 51°16.301 2°54.22 8.4585 3.569814 32.555287 -2.871232
2007-01-23 06:53:17 51°16.302 2°54.22 8.4603 3.569814 32.55441 -2.871232
2007-01-23 06:53:22 51°16.302 2°54.22 8.4638 3.56971 32.554238 -2.871232
2007-01-23 06:53:27 51°16.302 2°54.22 8.457 3.569503 32.553893 -2.871232
2007-01-23 06:53:32 51°16.301 2°54.221 8.4633 3.569192 32.552498 -2.871232
2007-01-23 06:53:37 51°16.302 2°54.22 8.4632 3.569192 32.552498 -2.871232
2007-01-23 06:53:42 51°16.302 2°54.22 8.4597 3.569192 32.552498 -2.871232
2007-01-23 06:53:47 51°16.302 2°54.22 8.4596 3.568985 32.551276 -2.871232
2007-01-23 06:53:52 51°16.301 2°54.22 8.4615 3.568985 32.550398 -2.871232
2007-01-23 06:53:57 51°16.302 2°54.22 8.4593 3.568778 32.549176 -2.871232
2007-01-23 06:54:02 51°16.302 2°54.219 8.461 3.568571 32.547076 -2.871232
2007-01-23 06:54:07 51°16.302 2°54.219 8.4585 3.568467 32.545149 -2.871232
2007-01-23 06:54:12 51°16.302 2°54.219 8.4603 3.568467 32.545149 -2.871232
2007-01-23 06:54:17 51°16.302 2°54.219 8.4616 3.568364 32.544099 -2.871232
2007-01-23 06:54:22 51°16.302 2°54.219 8.4619 3.568364 32.543222 -2.871232
2007-01-23 06:54:27 51°16.302 2°54.219 8.461 3.568157 32.541999 -2.871232
2007-01-23 06:54:32 51°16.302 2°54.219 8.4622 3.568053 32.541826 -2.871232
2007-01-23 06:54:37 51°16.302 2°54.219 8.4638 3.568053 32.542704 -2.871232
2007-01-23 06:54:42 51°16.302 2°54.219 8.467 3.568053 32.542704 -2.871232
2007-01-23 06:54:47 51°16.302 2°54.219 8.465 3.568053 32.541826 -2.871232
2007-01-23 06:54:52 51°16.302 2°54.219 8.4655 3.568157 32.542876 -2.871232
2007-01-23 06:54:57 51°16.302 2°54.219 8.466 3.56826 32.543049 -2.871232
2007-01-23 06:55:02 51°16.302 2°54.219 8.468 3.568364 32.543222 -2.871232
2007-01-23 06:55:07 51°16.302 2°54.219 8.4694 3.568467 32.543394 -2.871232
2007-01-23 06:55:12 51°16.302 2°54.219 8.4654 3.568467 32.543394 -2.871232
2007-01-23 06:55:17 51°16.302 2°54.219 8.4674 3.568674 32.544617 -2.871232
2007-01-23 06:55:22 51°16.302 2°54.219 8.4706 3.568778 32.544789 -2.871232
2007-01-23 06:55:27 51°16.302 2°54.219 8.4701 3.568882 32.545839 -2.871232
2007-01-23 06:55:32 51°16.302 2°54.219 8.4705 3.569089 32.547061 -2.871232
2007-01-23 06:55:37 51°16.302 2°54.219 8.4739 3.569192 32.547234 -2.871232
2007-01-23 06:55:42 51°16.302 2°54.219 8.4725 3.569192 32.547234 -2.871232
2007-01-23 06:55:47 51°16.301 2°54.219 8.4708 3.569296 32.548284 -2.871232
2007-01-23 06:55:52 51°16.301 2°54.219 8.4674 3.569296 32.547406 -2.871232
2007-01-23 06:55:57 51°16.301 2°54.219 8.4738 3.569296 32.546529 -2.871232
2007-01-23 06:56:02 51°16.301 2°54.219 8.4713 3.569399 32.546702 -2.871232
2007-01-23 06:56:07 51°16.302 2°54.219 8.47 3.569503 32.545997 -2.871232
2007-01-23 06:56:12 51°16.301 2°54.219 8.4676 3.569503 32.545997 -2.871232
2007-01-23 06:56:17 51°16.301 2°54.219 8.4694 3.569503 32.545997 -2.871232
2007-01-23 06:56:22 51°16.301 2°54.219 8.468 3.569503 32.545997 -2.871232
2007-01-23 06:56:27 51°16.301 2°54.219 8.4685 3.569399 32.544948 -2.871232
2007-01-23 06:56:32 51°16.301 2°54.219 8.4661 3.569503 32.546874 -2.871232
2007-01-23 06:56:37 51°16.301 2°54.219 8.4695 3.569399 32.546702 -2.871232
2007-01-23 06:56:42 51°16.301 2°54.219 8.4662 3.569399 32.546702 -2.871232
2007-01-23 06:56:47 51°16.301 2°54.219 8.4665 3.569192 32.54548 -2.871232
2007-01-23 06:56:52 51°16.301 2°54.219 8.4625 3.569192 32.54548 -2.871232
2007-01-23 06:56:57 51°16.301 2°54.219 8.4646 3.569089 32.54443 -2.871232
2007-01-23 06:57:02 51°16.301 2°54.219 8.4668 3.568882 32.542331 -2.871232
2007-01-23 06:57:07 51°16.301 2°54.219 8.4628 3.568674 32.541108 -2.871232
2007-01-23 06:57:12 51°16.301 2°54.219 8.4629 3.568674 32.541108 -2.871232
2007-01-23 06:57:17 51°16.301 2°54.219 8.4664 3.568571 32.540936 -2.871232
2007-01-23 06:57:22 51°16.301 2°54.219 8.4623 3.568467 32.54164 -2.871232
2007-01-23 06:57:27 51°16.301 2°54.219 8.463 3.568364 32.54059 -2.871232
2007-01-23 06:57:32 51°16.301 2°54.219 8.4622 3.568364 32.54059 -2.871232
2007-01-23 06:57:37 51°16.301 2°54.219 8.464 3.56826 32.540417 -2.871232
2007-01-23 06:57:42 51°16.301 2°54.219 8.4597 3.56826 32.540417 -2.871232
2007-01-23 06:57:47 51°16.301 2°54.22 8.4582 3.568157 32.539368 -2.871232
2007-01-23 06:57:52 51°16.301 2°54.22 8.4586 3.568053 32.538318 -2.871232
2007-01-23 06:57:57 51°16.301 2°54.219 8.46 3.567949 32.538145 -2.871232
2007-01-23 06:58:02 51°16.301 2°54.22 8.4618 3.567742 32.536046 -2.871232
2007-01-23 06:58:07 51°16.301 2°54.22 8.4627 3.567639 32.535873 -2.871232
2007-01-23 06:58:12 51°16.301 2°54.22 8.4601 3.567639 32.535873 -2.871232
2007-01-23 06:58:17 51°16.301 2°54.22 8.4604 3.567328 32.5336 -2.871232
2007-01-23 06:58:22 51°16.301 2°54.22 8.4654 3.567121 32.532378 -2.871232
2007-01-23 06:58:27 51°16.301 2°54.22 8.463 3.567121 32.532378 -2.871232
2007-01-23 06:58:32 51°16.301 2°54.22 8.4625 3.567017 32.530451 -2.871232
2007-01-23 06:58:37 51°16.302 2°54.22 8.4627 3.567121 32.531501 -2.871232
2007-01-23 06:58:42 51°16.301 2°54.22 8.4641 3.567121 32.531501 -2.871232
2007-01-23 06:58:47 51°16.302 2°54.22 8.4609 3.567121 32.531501 -2.871232
2007-01-23 06:58:52 51°16.301 2°54.22 8.4618 3.567121 32.531501 -2.871232
2007-01-23 06:58:57 51°16.302 2°54.22 8.4619 3.567224 32.531674 -2.871232
2007-01-23 06:59:02 51°16.301 2°54.22 8.4627 3.567224 32.531674 -2.871232
2007-01-23 06:59:07 51°16.302 2°54.22 8.4588 3.567224 32.531674 -2.871232
2007-01-23 06:59:12 51°16.301 2°54.22 8.4564 3.567224 32.531674 -2.871232
2007-01-23 06:59:17 51°16.301 2°54.22 8.455 3.567224 32.531674 -2.871232
2007-01-23 06:59:22 51°16.301 2°54.219 8.457 3.567121 32.530624 -2.871232
2007-01-23 06:59:27 51°16.301 2°54.219 8.4577 3.567017 32.529574 -2.871232
2007-01-23 06:59:32 51°16.301 2°54.219 8.4562 3.56681 32.527474 -2.871232
2007-01-23 06:59:37 51°16.301 2°54.22 8.4588 3.566603 32.527128 -2.871232
2007-01-23 06:59:42 51°16.301 2°54.219 8.4569 3.566603 32.527128 -2.871232
2007-01-23 06:59:47 51°16.301 2°54.219 8.4568 3.566292 32.525733 -2.871232
2007-01-23 06:59:52 51°16.301 2°54.219 8.4558 3.565981 32.52346 -2.871232
2007-01-23 06:59:57 51°16.301 2°54.219 8.4527 3.565878 32.52241 -2.871232
2007-01-23 07:00:02 51°16.301 2°54.219 8.4525 3.565878 32.521533 -2.871232
2007-01-23 07:00:07 51°16.3 2°54.219 8.4515 3.565671 32.521187 -2.871232
2007-01-23 07:00:12 51°16.301 2°54.219 8.4523 3.565671 32.521187 -2.871232
2007-01-23 07:00:17 51°16.3 2°54.219 8.4509 3.565567 32.520137 -2.871232
2007-01-23 07:00:22 51°16.3 2°54.219 8.4528 3.565464 32.519087 -2.871232
2007-01-23 07:00:27 51°16.3 2°54.219 8.453 3.565256 32.517864 -2.871232
2007-01-23 07:00:32 51°16.3 2°54.219 8.4521 3.565049 32.517518 -2.871232
2007-01-23 07:00:37 51°16.3 2°54.219 8.4521 3.564842 32.515418 -2.871232
2007-01-23 07:00:42 51°16.3 2°54.219 8.4505 3.564842 32.515418 -2.871232
2007-01-23 07:00:47 51°16.3 2°54.219 8.45 3.564635 32.515071 -2.871232
2007-01-23 07:00:52 51°16.3 2°54.219 8.45 3.564428 32.512971 -2.871232
2007-01-23 07:00:57 51°16.301 2°54.219 8.4478 3.564531 32.513145 -2.871232
2007-01-23 07:01:02 51°16.3 2°54.219 8.4485 3.564428 32.512971 -2.871232
2007-01-23 07:01:07 51°16.3 2°54.219 8.4462 3.564428 32.512971 -2.871232
2007-01-23 07:01:12 51°16.301 2°54.219 8.4476 3.564428 32.512971 -2.871232
2007-01-23 07:01:17 51°16.3 2°54.219 8.4487 3.564324 32.512798 -2.871232
2007-01-23 07:01:22 51°16.3 2°54.219 8.4452 3.564221 32.511748 -2.871232
2007-01-23 07:01:27 51°16.3 2°54.219 8.4503 3.56391 32.509475 -2.871232
2007-01-23 07:01:32 51°16.3 2°54.219 8.4492 3.563703 32.508251 -2.871232
2007-01-23 07:01:37 51°16.301 2°54.219 8.4487 3.563496 32.507028 -2.871232
2007-01-23 07:01:42 51°16.3 2°54.219 8.4494 3.563496 32.507028 -2.871232
2007-01-23 07:01:47 51°16.3 2°54.219 8.4475 3.563496 32.507904 -2.871232
2007-01-23 07:01:52 51°16.3 2°54.219 8.4475 3.563185 32.505631 -2.871232
2007-01-23 07:01:57 51°16.3 2°54.219 8.4452 3.563081 32.503704 -2.871232
2007-01-23 07:02:02 51°16.3 2°54.219 8.4464 3.563081 32.503704 -2.871232
2007-01-23 07:02:07 51°16.3 2°54.219 8.4486 3.563185 32.503878 -2.871232
2007-01-23 07:02:12 51°16.3 2°54.219 8.4516 3.563185 32.503878 -2.871232
2007-01-23 07:02:17 51°16.3 2°54.219 8.4518 3.563185 32.503001 -2.871232
2007-01-23 07:02:22 51°16.3 2°54.219 8.4503 3.563081 32.503704 -2.871232
2007-01-23 07:02:27 51°16.3 2°54.219 8.4505 3.562978 32.502654 -2.871232
2007-01-23 07:02:32 51°16.3 2°54.219 8.4502 3.562978 32.502654 -2.871232
2007-01-23 07:02:37 51°16.3 2°54.219 8.4526 3.562978 32.501777 -2.871232
2007-01-23 07:02:42 51°16.3 2°54.219 8.4526 3.562978 32.501777 -2.871232
2007-01-23 07:02:47 51°16.3 2°54.219 8.4543 3.563081 32.501951 -2.871232
2007-01-23 07:02:52 51°16.3 2°54.219 8.4552 3.563185 32.503001 -2.871232
2007-01-23 07:02:57 51°16.3 2°54.219 8.4558 3.563185 32.503001 -2.871232
2007-01-23 07:03:02 51°16.3 2°54.219 8.4558 3.563185 32.502125 -2.871232
2007-01-23 07:03:07 51°16.3 2°54.219 8.4601 3.563392 32.504225 -2.871232
2007-01-23 07:03:12 51°16.3 2°54.219 8.4587 3.563392 32.504225 -2.871232
2007-01-23 07:03:17 51°16.3 2°54.219 8.4568 3.563599 32.505448 -2.871232
2007-01-23 07:03:22 51°16.3 2°54.219 8.4593 3.563806 32.505795 -2.871232
2007-01-23 07:03:27 51°16.3 2°54.218 8.4609 3.564014 32.507018 -2.871232
2007-01-23 07:03:32 51°16.3 2°54.219 8.4598 3.564117 32.508068 -2.871232
2007-01-23 07:03:37 51°16.3 2°54.219 8.4552 3.564221 32.507365 -2.871232
2007-01-23 07:03:42 51°16.3 2°54.218 8.4545 3.564221 32.507365 -2.871232
2007-01-23 07:03:47 51°16.3 2°54.219 8.4611 3.564324 32.507539 -2.871232
2007-01-23 07:03:52 51°16.3 2°54.218 8.4555 3.564221 32.506489 -2.871232
2007-01-23 07:03:57 51°16.3 2°54.219 8.4545 3.564221 32.505612 -2.871232
2007-01-23 07:04:02 51°16.3 2°54.219 8.4555 3.564117 32.504563 -2.871232
2007-01-23 07:04:07 51°16.3 2°54.219 8.4541 3.56391 32.504216 -2.871232
2007-01-23 07:04:12 51°16.3 2°54.219 8.453 3.56391 32.504216 -2.871232
2007-01-23 07:04:17 51°16.3 2°54.219 8.4543 3.563806 32.503166 -2.871232
2007-01-23 07:04:22 51°16.3 2°54.219 8.4514 3.563806 32.503166 -2.871232
2007-01-23 07:04:27 51°16.3 2°54.219 8.4529 3.563806 32.503166 -2.871232
2007-01-23 07:04:32 51°16.3 2°54.219 8.4509 3.563703 32.502992 -2.871232
2007-01-23 07:04:37 51°16.3 2°54.219 8.4545 3.563599 32.502819 -2.871232
2007-01-23 07:04:42 51°16.3 2°54.219 8.4515 3.563599 32.502819 -2.871232
2007-01-23 07:04:47 51°16.3 2°54.219 8.4508 3.563496 32.501769 -2.871232
2007-01-23 07:04:52 51°16.3 2°54.219 8.4547 3.563496 32.501769 -2.871232
2007-01-23 07:04:57 51°16.3 2°54.219 8.452 3.563392 32.501595 -2.871232